UAE194 LPPT-OMDB
Flight info
| Callsign | UAE194 |
|---|---|
| Flight time | 7h 42m |
| Altitude | 34000 |
| Route | ORVED DCT RODAP DCT RAKOD DCT UREDI DCT NVS/N0475F350 DCT NANDO/N0474F340 T257 MABUX M871 LASPO Z224 NINES/N0474F350 DCT OLMIR DCT XARON DCT GENIO DCT LUXUR UM134 ANB UG6 DIMAO UL874 OMENI DCT BONAR M980 LOSUL/N0472F370 M855 MMA N705 BOPIX N710 TAKRI M720 FYM M872 BDB Y214 RAPMA DCT KUVSO DCT KATIT DCT PEKEM M628 RIGIL G783 ELUDA/N0468F350 G783 ASPED Q308 KIPOK Q568 IMPED |
| Aircraft | B77W/H-SDE1E2E3FGHIJ2J3J4J5M1RWXY/LB1D1 |
Departure
| Time | 2026-04-24 03:18 |
|---|---|
| Airport | Lisbon Humberto Delgado Airport (LPPT) |
Arrival
| Time | 2026-04-24 11:00 |
|---|---|
| Airport | Dubai International Airport (OMDB) |
| Time | Latitude | Longitude | Altitude | Speed | Heading |
|---|---|---|---|---|---|
| 2026-04-24 02:24 | 38.77487 | -9.13176 | 342 ft | 0 kts | 78° |
| 2026-04-24 03:09 | 38.77484 | -9.13192 | 346 ft | 4 kts | 78° |
| 2026-04-24 03:09 | 38.77479 | -9.13225 | 342 ft | 4 kts | 78° |
| 2026-04-24 03:09 | 38.77477 | -9.13258 | 347 ft | 4 kts | 105° |
| 2026-04-24 03:09 | 38.77489 | -9.13288 | 344 ft | 4 kts | 141° |
| 2026-04-24 03:10 | 38.77507 | -9.13300 | 343 ft | 0 kts | 168° |
| 2026-04-24 03:12 | 38.77472 | -9.13291 | 343 ft | 13 kts | 168° |
| 2026-04-24 03:12 | 38.77375 | -9.13271 | 343 ft | 14 kts | 185° |
| 2026-04-24 03:13 | 38.77318 | -9.13366 | 347 ft | 14 kts | 257° |
| 2026-04-24 03:13 | 38.77298 | -9.13491 | 354 ft | 14 kts | 258° |
| 2026-04-24 03:13 | 38.77277 | -9.13615 | 355 ft | 14 kts | 258° |
| 2026-04-24 03:13 | 38.77256 | -9.13740 | 357 ft | 14 kts | 259° |
| 2026-04-24 03:14 | 38.77213 | -9.13850 | 361 ft | 14 kts | 217° |
| 2026-04-24 03:14 | 38.77123 | -9.13904 | 357 ft | 14 kts | 202° |
| 2026-04-24 03:14 | 38.77031 | -9.13952 | 355 ft | 14 kts | 203° |
| 2026-04-24 03:14 | 38.76936 | -9.14004 | 352 ft | 15 kts | 203° |
| 2026-04-24 03:15 | 38.76833 | -9.14058 | 356 ft | 16 kts | 202° |
| 2026-04-24 03:15 | 38.76729 | -9.14114 | 347 ft | 16 kts | 202° |
| 2026-04-24 03:15 | 38.76628 | -9.14169 | 348 ft | 16 kts | 202° |
| 2026-04-24 03:15 | 38.76546 | -9.14215 | 345 ft | 0 kts | 221° |
| 2026-04-24 03:16 | 38.76546 | -9.14216 | 345 ft | 0 kts | 221° |
| 2026-04-24 03:16 | 38.76528 | -9.14242 | 345 ft | 8 kts | 243° |
| 2026-04-24 03:16 | 38.76540 | -9.14314 | 342 ft | 10 kts | 290° |
| 2026-04-24 03:17 | 38.76590 | -9.14388 | 336 ft | 13 kts | 337° |
| 2026-04-24 03:17 | 38.76674 | -9.14374 | 348 ft | 0 kts | 23° |
| 2026-04-24 03:17 | 38.76764 | -9.14325 | 349 ft | 45 kts | 23° |
| 2026-04-24 03:17 | 38.77275 | -9.14052 | 363 ft | 113 kts | 22° |
| 2026-04-24 03:18 | 38.78191 | -9.13561 | 374 ft | 169 kts | 22° |
| 2026-04-24 03:18 | 38.79362 | -9.12935 | 721 ft | 182 kts | 23° |
| 2026-04-24 03:18 | 38.80512 | -9.12221 | 1344 ft | 186 kts | 28° |
| 2026-04-24 03:18 | 38.81658 | -9.11425 | 1971 ft | 188 kts | 28° |
| 2026-04-24 03:19 | 38.82872 | -9.10586 | 2237 ft | 210 kts | 27° |
| 2026-04-24 03:19 | 38.84214 | -9.09630 | 2462 ft | 233 kts | 30° |
| 2026-04-24 03:19 | 38.85695 | -9.08512 | 2700 ft | 256 kts | 30° |
| 2026-04-24 03:19 | 38.87220 | -9.07338 | 3425 ft | 259 kts | 29° |
| 2026-04-24 03:20 | 38.88788 | -9.06123 | 4091 ft | 264 kts | 33° |
| 2026-04-24 03:20 | 38.90054 | -9.04399 | 4600 ft | 272 kts | 62° |
| 2026-04-24 03:20 | 38.90860 | -9.02187 | 5203 ft | 277 kts | 64° |
| 2026-04-24 03:20 | 38.91683 | -8.99946 | 5978 ft | 278 kts | 64° |
| 2026-04-24 03:21 | 38.92510 | -8.97722 | 6708 ft | 280 kts | 64° |
| 2026-04-24 03:21 | 38.93299 | -8.95602 | 7358 ft | 284 kts | 64° |
| 2026-04-24 03:21 | 38.94155 | -8.93297 | 8019 ft | 288 kts | 65° |
| 2026-04-24 03:21 | 38.95023 | -8.90956 | 8700 ft | 291 kts | 65° |
| 2026-04-24 03:22 | 38.95901 | -8.88594 | 9363 ft | 295 kts | 65° |
| 2026-04-24 03:22 | 38.96789 | -8.86203 | 10020 ft | 299 kts | 65° |
| 2026-04-24 03:22 | 38.97696 | -8.83762 | 10503 ft | 310 kts | 66° |
| 2026-04-24 03:22 | 38.98661 | -8.81162 | 10658 ft | 334 kts | 66° |
| 2026-04-24 03:23 | 38.99693 | -8.78381 | 10861 ft | 356 kts | 66° |
| 2026-04-24 03:23 | 39.00780 | -8.75450 | 11063 ft | 378 kts | 66° |
| 2026-04-24 03:23 | 39.01926 | -8.72361 | 11682 ft | 386 kts | 65° |
| 2026-04-24 03:23 | 39.03094 | -8.69213 | 12441 ft | 393 kts | 65° |
| 2026-04-24 03:24 | 39.04278 | -8.66019 | 13260 ft | 398 kts | 65° |
| 2026-04-24 03:24 | 39.05474 | -8.62785 | 14114 ft | 402 kts | 65° |
| 2026-04-24 03:24 | 39.06682 | -8.59515 | 14921 ft | 407 kts | 66° |
| 2026-04-24 03:24 | 39.07902 | -8.56205 | 15679 ft | 413 kts | 66° |
| 2026-04-24 03:25 | 39.09140 | -8.52846 | 16430 ft | 417 kts | 66° |
| 2026-04-24 03:25 | 39.10354 | -8.49547 | 17165 ft | 422 kts | 66° |
| 2026-04-24 03:25 | 39.11617 | -8.46110 | 17882 ft | 427 kts | 66° |
| 2026-04-24 03:25 | 39.12894 | -8.42631 | 18584 ft | 432 kts | 66° |
| 2026-04-24 03:26 | 39.14132 | -8.39254 | 19272 ft | 435 kts | 66° |
| 2026-04-24 03:26 | 39.15432 | -8.35706 | 19968 ft | 439 kts | 67° |
| 2026-04-24 03:26 | 39.16741 | -8.32131 | 20624 ft | 444 kts | 67° |
| 2026-04-24 03:26 | 39.18061 | -8.28516 | 21277 ft | 447 kts | 67° |
| 2026-04-24 03:27 | 39.19391 | -8.24872 | 21904 ft | 451 kts | 67° |
| 2026-04-24 03:27 | 39.20730 | -8.21199 | 22519 ft | 454 kts | 67° |
| 2026-04-24 03:27 | 39.22061 | -8.17544 | 23096 ft | 458 kts | 67° |
| 2026-04-24 03:27 | 39.23419 | -8.13810 | 23676 ft | 461 kts | 68° |
| 2026-04-24 03:28 | 39.24787 | -8.10041 | 24236 ft | 465 kts | 68° |
| 2026-04-24 03:28 | 39.26162 | -8.06254 | 24787 ft | 468 kts | 68° |
| 2026-04-24 03:28 | 39.27507 | -8.02541 | 25296 ft | 471 kts | 68° |
| 2026-04-24 03:28 | 39.28818 | -7.98657 | 25799 ft | 472 kts | 71° |
| 2026-04-24 03:29 | 39.29983 | -7.94683 | 26293 ft | 474 kts | 74° |
| 2026-04-24 03:29 | 39.31091 | -7.90666 | 26788 ft | 476 kts | 74° |
| 2026-04-24 03:29 | 39.32201 | -7.86624 | 27259 ft | 479 kts | 74° |
| 2026-04-24 03:29 | 39.33334 | -7.82566 | 27708 ft | 482 kts | 74° |
| 2026-04-24 03:30 | 39.34490 | -7.78491 | 28128 ft | 484 kts | 73° |
| 2026-04-24 03:30 | 39.35661 | -7.74412 | 28541 ft | 486 kts | 74° |
| 2026-04-24 03:30 | 39.36840 | -7.70309 | 28923 ft | 488 kts | 74° |
| 2026-04-24 03:30 | 39.38021 | -7.66181 | 29291 ft | 490 kts | 74° |
| 2026-04-24 03:31 | 39.39356 | -7.62101 | 29678 ft | 494 kts | 68° |
| 2026-04-24 03:31 | 39.40971 | -7.58183 | 30153 ft | 494 kts | 65° |
| 2026-04-24 03:31 | 39.42702 | -7.54352 | 30666 ft | 492 kts | 64° |
| 2026-04-24 03:31 | 39.44449 | -7.50550 | 31144 ft | 490 kts | 64° |
| 2026-04-24 03:32 | 39.46165 | -7.46744 | 31558 ft | 489 kts | 64° |
| 2026-04-24 03:32 | 39.47823 | -7.42974 | 31971 ft | 488 kts | 65° |
| 2026-04-24 03:32 | 39.49204 | -7.39775 | 32311 ft | 487 kts | 65° |
| 2026-04-24 03:32 | 39.50901 | -7.35800 | 32733 ft | 485 kts | 66° |
| 2026-04-24 03:33 | 39.52526 | -7.31971 | 33110 ft | 484 kts | 66° |
| 2026-04-24 03:33 | 39.54146 | -7.28144 | 33452 ft | 483 kts | 66° |
| 2026-04-24 03:33 | 39.55736 | -7.24386 | 33812 ft | 482 kts | 66° |
| 2026-04-24 03:33 | 39.57349 | -7.20585 | 34154 ft | 480 kts | 66° |
| 2026-04-24 03:34 | 39.58414 | -7.18068 | 34355 ft | 480 kts | 66° |
| 2026-04-24 03:34 | 39.60021 | -7.14267 | 34606 ft | 481 kts | 66° |
| 2026-04-24 03:34 | 39.61635 | -7.10447 | 34828 ft | 482 kts | 66° |
| 2026-04-24 03:34 | 39.63732 | -7.05343 | 34961 ft | 484 kts | 69° |
| 2026-04-24 03:35 | 39.64682 | -7.02656 | 35016 ft | 484 kts | 71° |
| 2026-04-24 03:35 | 39.67360 | -6.94727 | 35001 ft | 480 kts | 71° |
| 2026-04-24 03:36 | 39.70016 | -6.86822 | 35017 ft | 476 kts | 71° |
| 2026-04-24 03:36 | 39.72638 | -6.79071 | 35014 ft | 475 kts | 71° |
| 2026-04-24 03:37 | 39.75299 | -6.71207 | 35011 ft | 475 kts | 71° |
| 2026-04-24 03:37 | 39.77956 | -6.63331 | 35010 ft | 475 kts | 71° |
| 2026-04-24 03:38 | 39.80610 | -6.55432 | 35004 ft | 476 kts | 71° |
| 2026-04-24 03:38 | 39.83251 | -6.47538 | 35010 ft | 476 kts | 71° |
| 2026-04-24 03:39 | 39.85882 | -6.39625 | 35011 ft | 476 kts | 72° |
| 2026-04-24 03:39 | 39.87987 | -6.31555 | 35009 ft | 473 kts | 77° |
| 2026-04-24 03:40 | 39.89967 | -6.23388 | 35018 ft | 473 kts | 77° |
| 2026-04-24 03:40 | 39.91954 | -6.15223 | 35014 ft | 473 kts | 76° |
| 2026-04-24 03:41 | 39.93957 | -6.07046 | 35020 ft | 473 kts | 76° |
| 2026-04-24 03:41 | 39.95958 | -5.98874 | 35021 ft | 473 kts | 76° |
| 2026-04-24 03:42 | 39.97951 | -5.90710 | 35019 ft | 473 kts | 76° |
| 2026-04-24 03:42 | 39.99936 | -5.82542 | 35018 ft | 473 kts | 77° |
| 2026-04-24 03:43 | 40.01903 | -5.74419 | 35030 ft | 472 kts | 77° |
| 2026-04-24 03:43 | 40.03873 | -5.66257 | 35027 ft | 472 kts | 77° |
| 2026-04-24 03:44 | 40.05838 | -5.58085 | 35029 ft | 472 kts | 77° |
| 2026-04-24 03:44 | 40.07798 | -5.49906 | 35033 ft | 472 kts | 77° |
| 2026-04-24 03:45 | 40.09751 | -5.41728 | 35043 ft | 472 kts | 77° |
| 2026-04-24 03:45 | 40.11699 | -5.33535 | 35047 ft | 472 kts | 77° |
| 2026-04-24 03:46 | 40.13641 | -5.25347 | 35057 ft | 472 kts | 77° |
| 2026-04-24 03:46 | 40.15579 | -5.17147 | 35057 ft | 472 kts | 77° |
| 2026-04-24 03:47 | 40.17499 | -5.08990 | 35056 ft | 473 kts | 77° |
| 2026-04-24 03:47 | 40.19432 | -5.00753 | 35057 ft | 474 kts | 77° |
| 2026-04-24 03:48 | 40.21358 | -4.92513 | 35064 ft | 474 kts | 77° |
| 2026-04-24 03:48 | 40.23286 | -4.84235 | 35067 ft | 475 kts | 77° |
| 2026-04-24 03:49 | 40.25209 | -4.75950 | 35068 ft | 475 kts | 77° |
| 2026-04-24 03:49 | 40.27111 | -4.67724 | 35078 ft | 475 kts | 77° |
| 2026-04-24 03:50 | 40.29021 | -4.59422 | 35094 ft | 476 kts | 77° |
| 2026-04-24 03:50 | 40.30929 | -4.51117 | 35090 ft | 476 kts | 77° |
| 2026-04-24 03:51 | 40.32830 | -4.42805 | 35095 ft | 476 kts | 77° |
| 2026-04-24 03:51 | 40.34724 | -4.34494 | 35089 ft | 476 kts | 77° |
| 2026-04-24 03:52 | 40.36170 | -4.26095 | 35101 ft | 468 kts | 90° |
| 2026-04-24 03:52 | 40.35765 | -4.17682 | 35107 ft | 460 kts | 106° |
| 2026-04-24 03:53 | 40.34296 | -4.09532 | 35108 ft | 460 kts | 107° |
| 2026-04-24 03:53 | 40.32805 | -4.01371 | 35103 ft | 461 kts | 107° |
| 2026-04-24 03:54 | 40.31341 | -3.93179 | 35094 ft | 462 kts | 107° |
| 2026-04-24 03:54 | 40.29899 | -3.85025 | 35096 ft | 462 kts | 107° |
| 2026-04-24 03:55 | 40.28444 | -3.76817 | 35096 ft | 462 kts | 107° |
| 2026-04-24 03:55 | 40.26980 | -3.68596 | 35076 ft | 463 kts | 107° |
| 2026-04-24 03:56 | 40.25514 | -3.60397 | 35074 ft | 463 kts | 107° |
| 2026-04-24 03:56 | 40.24039 | -3.52198 | 35080 ft | 462 kts | 107° |
| 2026-04-24 03:57 | 40.22559 | -3.44005 | 35093 ft | 462 kts | 107° |
| 2026-04-24 03:57 | 40.21082 | -3.35857 | 35106 ft | 463 kts | 107° |
| 2026-04-24 03:58 | 40.19586 | -3.27650 | 35095 ft | 463 kts | 106° |
| 2026-04-24 03:58 | 40.18084 | -3.19445 | 35107 ft | 464 kts | 107° |
| 2026-04-24 03:59 | 40.16577 | -3.11231 | 35112 ft | 465 kts | 106° |
| 2026-04-24 03:59 | 40.15058 | -3.02999 | 35108 ft | 466 kts | 106° |
| 2026-04-24 04:00 | 40.13530 | -2.94754 | 35116 ft | 467 kts | 106° |
| 2026-04-24 04:00 | 40.11993 | -2.86495 | 35109 ft | 469 kts | 106° |
| 2026-04-24 04:01 | 40.10444 | -2.78215 | 35111 ft | 469 kts | 106° |
| 2026-04-24 04:01 | 40.08889 | -2.69920 | 35114 ft | 470 kts | 106° |
| 2026-04-24 04:02 | 40.07338 | -2.61682 | 35123 ft | 470 kts | 106° |
| 2026-04-24 04:02 | 40.05781 | -2.53456 | 35107 ft | 471 kts | 106° |
| 2026-04-24 04:03 | 40.04208 | -2.45175 | 35114 ft | 468 kts | 106° |
| 2026-04-24 04:03 | 40.02634 | -2.36934 | 35121 ft | 467 kts | 106° |
| 2026-04-24 04:04 | 40.01059 | -2.28714 | 35133 ft | 467 kts | 106° |
| 2026-04-24 04:04 | 39.99444 | -2.20497 | 35128 ft | 467 kts | 109° |
| 2026-04-24 04:05 | 39.96973 | -2.12705 | 35129 ft | 464 kts | 121° |
| 2026-04-24 04:05 | 39.93830 | -2.05412 | 35148 ft | 465 kts | 121° |
| 2026-04-24 04:06 | 39.90662 | -1.98057 | 35142 ft | 466 kts | 121° |
| 2026-04-24 04:06 | 39.87508 | -1.90667 | 35137 ft | 467 kts | 121° |
| 2026-04-24 04:07 | 39.84349 | -1.83250 | 35147 ft | 468 kts | 121° |
| 2026-04-24 04:07 | 39.81189 | -1.75850 | 35140 ft | 468 kts | 121° |
| 2026-04-24 04:08 | 39.78022 | -1.68451 | 35141 ft | 468 kts | 121° |
| 2026-04-24 04:08 | 39.74853 | -1.61070 | 35139 ft | 468 kts | 121° |
| 2026-04-24 04:09 | 39.71679 | -1.53695 | 35133 ft | 467 kts | 121° |
| 2026-04-24 04:09 | 39.68519 | -1.46379 | 35138 ft | 467 kts | 121° |
| 2026-04-24 04:10 | 39.65343 | -1.39033 | 35147 ft | 467 kts | 121° |
| 2026-04-24 04:10 | 39.62161 | -1.31693 | 35134 ft | 467 kts | 121° |
| 2026-04-24 04:11 | 39.57374 | -1.20678 | 35138 ft | 467 kts | 121° |
| 2026-04-24 04:11 | 39.54174 | -1.13338 | 35134 ft | 468 kts | 121° |
| 2026-04-24 04:12 | 39.50977 | -1.05988 | 35141 ft | 468 kts | 121° |
| 2026-04-24 04:12 | 39.47795 | -0.98677 | 35136 ft | 469 kts | 122° |
| 2026-04-24 04:13 | 39.44581 | -0.91317 | 35123 ft | 470 kts | 122° |
| 2026-04-24 04:13 | 39.41367 | -0.83958 | 35129 ft | 470 kts | 122° |
| 2026-04-24 04:14 | 39.38135 | -0.76612 | 35124 ft | 470 kts | 122° |
| 2026-04-24 04:14 | 39.34890 | -0.69276 | 35129 ft | 470 kts | 122° |
| 2026-04-24 04:15 | 39.31643 | -0.61936 | 35131 ft | 470 kts | 122° |
| 2026-04-24 04:15 | 39.28576 | -0.54457 | 35136 ft | 472 kts | 115° |
| 2026-04-24 04:16 | 39.26529 | -0.46376 | 35132 ft | 476 kts | 107° |
| 2026-04-24 04:16 | 39.24853 | -0.38116 | 35132 ft | 476 kts | 107° |
| 2026-04-24 04:17 | 39.23151 | -0.29862 | 35125 ft | 476 kts | 108° |
| 2026-04-24 04:17 | 39.21431 | -0.21677 | 35120 ft | 476 kts | 108° |
| 2026-04-24 04:18 | 39.19684 | -0.13436 | 35121 ft | 476 kts | 108° |
| 2026-04-24 04:18 | 39.17932 | -0.05200 | 35120 ft | 476 kts | 108° |
| 2026-04-24 04:19 | 39.16172 | 0.03041 | 35113 ft | 477 kts | 107° |
| 2026-04-24 04:19 | 39.14403 | 0.11301 | 35105 ft | 482 kts | 107° |
| 2026-04-24 04:20 | 39.12596 | 0.19706 | 35116 ft | 491 kts | 107° |
| 2026-04-24 04:20 | 39.10769 | 0.28177 | 35102 ft | 491 kts | 107° |
| 2026-04-24 04:21 | 39.08937 | 0.36633 | 35101 ft | 490 kts | 107° |
| 2026-04-24 04:21 | 39.07114 | 0.45033 | 35085 ft | 489 kts | 107° |
| 2026-04-24 04:22 | 39.05273 | 0.53460 | 35084 ft | 489 kts | 107° |
| 2026-04-24 04:22 | 39.03434 | 0.61873 | 35089 ft | 488 kts | 107° |
| 2026-04-24 04:23 | 39.01903 | 0.68852 | 35086 ft | 488 kts | 107° |
| 2026-04-24 04:23 | 38.99745 | 0.78675 | 35082 ft | 488 kts | 107° |
| 2026-04-24 04:24 | 38.98208 | 0.85662 | 35076 ft | 489 kts | 107° |
| 2026-04-24 04:24 | 38.96351 | 0.94070 | 35089 ft | 489 kts | 107° |
| 2026-04-24 04:25 | 38.94473 | 1.02494 | 35089 ft | 490 kts | 107° |
| 2026-04-24 04:25 | 38.92586 | 1.10920 | 35084 ft | 491 kts | 107° |
| 2026-04-24 04:26 | 38.90692 | 1.19353 | 35071 ft | 492 kts | 107° |
| 2026-04-24 04:26 | 38.88791 | 1.27789 | 35071 ft | 493 kts | 107° |
| 2026-04-24 04:27 | 38.86893 | 1.36186 | 35079 ft | 493 kts | 107° |
| 2026-04-24 04:27 | 38.84817 | 1.44579 | 35065 ft | 493 kts | 109° |
| 2026-04-24 04:28 | 38.82641 | 1.52938 | 35077 ft | 494 kts | 109° |
| 2026-04-24 04:28 | 38.80502 | 1.61331 | 35072 ft | 495 kts | 109° |
| 2026-04-24 04:29 | 38.78375 | 1.69675 | 35076 ft | 495 kts | 108° |
| 2026-04-24 04:29 | 38.76228 | 1.78072 | 35080 ft | 496 kts | 109° |
| 2026-04-24 04:30 | 38.74066 | 1.86482 | 35078 ft | 496 kts | 109° |
| 2026-04-24 04:30 | 38.71898 | 1.94891 | 35090 ft | 497 kts | 109° |
| 2026-04-24 04:31 | 38.69727 | 2.03290 | 35088 ft | 497 kts | 108° |
| 2026-04-24 04:31 | 38.67559 | 2.11641 | 35086 ft | 498 kts | 108° |
| 2026-04-24 04:32 | 38.65072 | 2.19966 | 35082 ft | 498 kts | 115° |
| 2026-04-24 04:32 | 38.62063 | 2.27905 | 35075 ft | 499 kts | 116° |
| 2026-04-24 04:33 | 38.59036 | 2.35906 | 35093 ft | 500 kts | 116° |
| 2026-04-24 04:33 | 38.56037 | 2.43938 | 35085 ft | 501 kts | 115° |
| 2026-04-24 04:34 | 38.53037 | 2.51965 | 35084 ft | 501 kts | 115° |
| 2026-04-24 04:34 | 38.50034 | 2.59994 | 35082 ft | 501 kts | 115° |
| 2026-04-24 04:35 | 38.47032 | 2.68016 | 35087 ft | 500 kts | 115° |
| 2026-04-24 04:35 | 38.44025 | 2.76032 | 35085 ft | 500 kts | 115° |
| 2026-04-24 04:36 | 38.41009 | 2.84045 | 35079 ft | 501 kts | 115° |
| 2026-04-24 04:36 | 38.37993 | 2.92053 | 35078 ft | 501 kts | 115° |
| 2026-04-24 04:37 | 38.34993 | 3.00012 | 35084 ft | 501 kts | 115° |
| 2026-04-24 04:37 | 38.31970 | 3.08014 | 35086 ft | 501 kts | 115° |
| 2026-04-24 04:38 | 38.28989 | 3.16042 | 35073 ft | 501 kts | 111° |
| 2026-04-24 04:38 | 38.26543 | 3.24349 | 35072 ft | 501 kts | 109° |
| 2026-04-24 04:39 | 38.24124 | 3.32675 | 35064 ft | 502 kts | 109° |
| 2026-04-24 04:39 | 38.21663 | 3.40984 | 35055 ft | 502 kts | 110° |
| 2026-04-24 04:40 | 38.19140 | 3.49269 | 35052 ft | 503 kts | 110° |
| 2026-04-24 04:40 | 38.16553 | 3.57519 | 35046 ft | 503 kts | 111° |
| 2026-04-24 04:41 | 38.13971 | 3.65736 | 35046 ft | 504 kts | 110° |
| 2026-04-24 04:41 | 38.11378 | 3.74008 | 35047 ft | 504 kts | 110° |
| 2026-04-24 04:42 | 38.08788 | 3.82267 | 35042 ft | 504 kts | 110° |
| 2026-04-24 04:42 | 38.06186 | 3.90534 | 35036 ft | 504 kts | 110° |
| 2026-04-24 04:43 | 38.03577 | 3.98791 | 35038 ft | 504 kts | 111° |
| 2026-04-24 04:43 | 38.00964 | 4.07043 | 35038 ft | 504 kts | 111° |
| 2026-04-24 04:44 | 37.98347 | 4.15282 | 35037 ft | 504 kts | 111° |
| 2026-04-24 04:44 | 37.95723 | 4.23519 | 35027 ft | 504 kts | 111° |
| 2026-04-24 04:45 | 37.93093 | 4.31754 | 35023 ft | 504 kts | 111° |
| 2026-04-24 04:45 | 37.90460 | 4.39973 | 35018 ft | 504 kts | 111° |
| 2026-04-24 04:46 | 37.87834 | 4.48146 | 35019 ft | 504 kts | 111° |
| 2026-04-24 04:46 | 37.85180 | 4.56377 | 35021 ft | 505 kts | 111° |
| 2026-04-24 04:47 | 37.82521 | 4.64604 | 35022 ft | 505 kts | 111° |
| 2026-04-24 04:47 | 37.79856 | 4.72833 | 35021 ft | 505 kts | 111° |
| 2026-04-24 04:48 | 37.77188 | 4.81045 | 35015 ft | 505 kts | 111° |
| 2026-04-24 04:48 | 37.74508 | 4.89263 | 35014 ft | 506 kts | 111° |
| 2026-04-24 04:49 | 37.71837 | 4.97443 | 35007 ft | 507 kts | 111° |
| 2026-04-24 04:49 | 37.69209 | 5.05713 | 35008 ft | 508 kts | 109° |
| 2026-04-24 04:50 | 37.66745 | 5.14086 | 35010 ft | 509 kts | 108° |
| 2026-04-24 04:50 | 37.64289 | 5.22476 | 35012 ft | 510 kts | 108° |
| 2026-04-24 04:51 | 37.61798 | 5.30862 | 35010 ft | 510 kts | 108° |
| 2026-04-24 04:51 | 37.59283 | 5.39238 | 35005 ft | 511 kts | 108° |
| 2026-04-24 04:52 | 37.56752 | 5.47620 | 35007 ft | 511 kts | 108° |
| 2026-04-24 04:52 | 37.54222 | 5.55997 | 35014 ft | 512 kts | 108° |
| 2026-04-24 04:53 | 37.51679 | 5.64390 | 35011 ft | 512 kts | 108° |
| 2026-04-24 04:53 | 37.49147 | 5.72718 | 35003 ft | 512 kts | 108° |
| 2026-04-24 04:54 | 37.46594 | 5.81089 | 34996 ft | 513 kts | 108° |
| 2026-04-24 04:54 | 37.44027 | 5.89480 | 35008 ft | 513 kts | 108° |
| 2026-04-24 04:55 | 37.41462 | 5.97846 | 35010 ft | 513 kts | 108° |
| 2026-04-24 04:55 | 37.38885 | 6.06223 | 35018 ft | 513 kts | 108° |
| 2026-04-24 04:56 | 37.36302 | 6.14601 | 35023 ft | 514 kts | 108° |
| 2026-04-24 04:56 | 37.33711 | 6.22976 | 35021 ft | 514 kts | 108° |
| 2026-04-24 04:57 | 37.31105 | 6.31372 | 35021 ft | 515 kts | 108° |
| 2026-04-24 04:57 | 37.28493 | 6.39756 | 35018 ft | 515 kts | 108° |
| 2026-04-24 04:58 | 37.25875 | 6.48139 | 35024 ft | 515 kts | 108° |
| 2026-04-24 04:58 | 37.23254 | 6.56511 | 35027 ft | 515 kts | 109° |
| 2026-04-24 04:59 | 37.20643 | 6.64824 | 35026 ft | 515 kts | 109° |
| 2026-04-24 04:59 | 37.18009 | 6.73194 | 35031 ft | 516 kts | 109° |
| 2026-04-24 05:00 | 37.15371 | 6.81547 | 35054 ft | 516 kts | 109° |
| 2026-04-24 05:00 | 37.12725 | 6.89899 | 35081 ft | 516 kts | 109° |
| 2026-04-24 05:01 | 37.10068 | 6.98259 | 35082 ft | 516 kts | 109° |
| 2026-04-24 05:01 | 37.07401 | 7.06628 | 35090 ft | 517 kts | 109° |
| 2026-04-24 05:02 | 37.04744 | 7.14942 | 35078 ft | 517 kts | 109° |
| 2026-04-24 05:02 | 37.02062 | 7.23311 | 35085 ft | 518 kts | 109° |
| 2026-04-24 05:03 | 36.99372 | 7.31680 | 35085 ft | 518 kts | 109° |
| 2026-04-24 05:03 | 36.96674 | 7.40048 | 35080 ft | 519 kts | 109° |
| 2026-04-24 05:04 | 36.93965 | 7.48422 | 35074 ft | 519 kts | 109° |
| 2026-04-24 05:04 | 36.91252 | 7.56792 | 35071 ft | 519 kts | 109° |
| 2026-04-24 05:05 | 36.88554 | 7.65102 | 35080 ft | 519 kts | 109° |
| 2026-04-24 05:05 | 36.85826 | 7.73468 | 35078 ft | 520 kts | 109° |
| 2026-04-24 05:06 | 36.82475 | 7.81497 | 35070 ft | 524 kts | 122° |
| 2026-04-24 05:06 | 36.77914 | 7.88604 | 35072 ft | 526 kts | 133° |
| 2026-04-24 05:07 | 36.72797 | 7.95121 | 35088 ft | 526 kts | 134° |
| 2026-04-24 05:07 | 36.67672 | 8.01660 | 35096 ft | 527 kts | 133° |
| 2026-04-24 05:08 | 36.62579 | 8.08241 | 35088 ft | 528 kts | 133° |
| 2026-04-24 05:08 | 36.57493 | 8.14830 | 35099 ft | 528 kts | 133° |
| 2026-04-24 05:09 | 36.52428 | 8.21366 | 35097 ft | 528 kts | 133° |
| 2026-04-24 05:09 | 36.47329 | 8.27932 | 35095 ft | 528 kts | 133° |
| 2026-04-24 05:10 | 36.42506 | 8.34753 | 35105 ft | 523 kts | 120° |
| 2026-04-24 05:10 | 36.39842 | 8.41427 | 35120 ft | 517 kts | 106° |
| 2026-04-24 05:11 | 36.38245 | 8.50022 | 35122 ft | 511 kts | 96° |
| 2026-04-24 05:11 | 36.36972 | 8.58717 | 35128 ft | 513 kts | 96° |
| 2026-04-24 05:12 | 36.35628 | 8.67428 | 35131 ft | 515 kts | 97° |
| 2026-04-24 05:12 | 36.34234 | 8.76149 | 35136 ft | 516 kts | 97° |
| 2026-04-24 05:13 | 36.32108 | 8.89274 | 35127 ft | 518 kts | 97° |
| 2026-04-24 05:14 | 36.30689 | 8.98023 | 35125 ft | 517 kts | 97° |
| 2026-04-24 05:14 | 36.29266 | 9.06760 | 35126 ft | 517 kts | 97° |
| 2026-04-24 05:15 | 36.27846 | 9.15432 | 35127 ft | 517 kts | 97° |
| 2026-04-24 05:15 | 36.26412 | 9.24154 | 35127 ft | 516 kts | 97° |
| 2026-04-24 05:16 | 36.24993 | 9.32868 | 35130 ft | 515 kts | 95° |
| 2026-04-24 05:16 | 36.23924 | 9.41627 | 35131 ft | 514 kts | 93° |
| 2026-04-24 05:17 | 36.22936 | 9.50417 | 35133 ft | 516 kts | 93° |
| 2026-04-24 05:17 | 36.21919 | 9.59237 | 35129 ft | 518 kts | 93° |
| 2026-04-24 05:18 | 36.20870 | 9.68068 | 35120 ft | 519 kts | 93° |
| 2026-04-24 05:18 | 36.19809 | 9.76910 | 35136 ft | 520 kts | 93° |
| 2026-04-24 05:19 | 36.18741 | 9.85778 | 35128 ft | 521 kts | 93° |
| 2026-04-24 05:19 | 36.17673 | 9.94608 | 35130 ft | 522 kts | 93° |
| 2026-04-24 05:20 | 36.16589 | 10.03497 | 35117 ft | 522 kts | 93° |
| 2026-04-24 05:20 | 36.15475 | 10.12381 | 35109 ft | 524 kts | 96° |
| 2026-04-24 05:21 | 36.13510 | 10.21114 | 35119 ft | 528 kts | 105° |
| 2026-04-24 05:21 | 36.11101 | 10.29715 | 35111 ft | 528 kts | 104° |
| 2026-04-24 05:22 | 36.08814 | 10.38256 | 35101 ft | 525 kts | 102° |
| 2026-04-24 05:22 | 36.07334 | 10.47010 | 35106 ft | 516 kts | 91° |
| 2026-04-24 05:23 | 36.06963 | 10.55797 | 35111 ft | 510 kts | 86° |
| 2026-04-24 05:23 | 36.06776 | 10.64557 | 35103 ft | 509 kts | 86° |
| 2026-04-24 05:24 | 36.06548 | 10.73294 | 35100 ft | 508 kts | 86° |
| 2026-04-24 05:24 | 36.06287 | 10.82010 | 35103 ft | 506 kts | 87° |
| 2026-04-24 05:25 | 36.06019 | 10.90628 | 35100 ft | 504 kts | 87° |
| 2026-04-24 05:25 | 36.05745 | 10.99267 | 35099 ft | 502 kts | 87° |
| 2026-04-24 05:26 | 36.05468 | 11.07869 | 35104 ft | 500 kts | 88° |
| 2026-04-24 05:26 | 36.05187 | 11.16445 | 35104 ft | 499 kts | 88° |
| 2026-04-24 05:27 | 36.04901 | 11.24993 | 35097 ft | 497 kts | 88° |
| 2026-04-24 05:27 | 36.04611 | 11.33517 | 35102 ft | 496 kts | 88° |
| 2026-04-24 05:28 | 36.04344 | 11.42006 | 35103 ft | 494 kts | 88° |
| 2026-04-24 05:28 | 36.03943 | 11.50489 | 35096 ft | 496 kts | 94° |
| 2026-04-24 05:29 | 36.02507 | 11.58863 | 35105 ft | 499 kts | 100° |
| 2026-04-24 05:29 | 36.00839 | 11.67178 | 35102 ft | 499 kts | 100° |
| 2026-04-24 05:30 | 35.99201 | 11.75445 | 35098 ft | 499 kts | 100° |
| 2026-04-24 05:30 | 35.97577 | 11.83780 | 35099 ft | 499 kts | 100° |
| 2026-04-24 05:31 | 35.95955 | 11.92121 | 35086 ft | 500 kts | 100° |
| 2026-04-24 05:31 | 35.94328 | 12.00462 | 35093 ft | 500 kts | 100° |
| 2026-04-24 05:32 | 35.92693 | 12.08803 | 35097 ft | 500 kts | 100° |
| 2026-04-24 05:32 | 35.91049 | 12.17147 | 35083 ft | 500 kts | 100° |
| 2026-04-24 05:33 | 35.89397 | 12.25493 | 35081 ft | 501 kts | 100° |
| 2026-04-24 05:33 | 35.87739 | 12.33845 | 35080 ft | 501 kts | 100° |
| 2026-04-24 05:34 | 35.85238 | 12.46388 | 35079 ft | 502 kts | 100° |
| 2026-04-24 05:34 | 35.83559 | 12.54758 | 35082 ft | 504 kts | 100° |
| 2026-04-24 05:35 | 35.81881 | 12.63095 | 35078 ft | 505 kts | 100° |
| 2026-04-24 05:35 | 35.80182 | 12.71501 | 35089 ft | 506 kts | 100° |
| 2026-04-24 05:36 | 35.78474 | 12.79924 | 35085 ft | 507 kts | 100° |
| 2026-04-24 05:36 | 35.76759 | 12.88351 | 35086 ft | 508 kts | 100° |
| 2026-04-24 05:37 | 35.75032 | 12.96803 | 35088 ft | 509 kts | 100° |
| 2026-04-24 05:37 | 35.73298 | 13.05248 | 35079 ft | 509 kts | 100° |
| 2026-04-24 05:38 | 35.71558 | 13.13697 | 35088 ft | 509 kts | 100° |
| 2026-04-24 05:38 | 35.69812 | 13.22143 | 35102 ft | 509 kts | 100° |
| 2026-04-24 05:39 | 35.68070 | 13.30528 | 35103 ft | 509 kts | 100° |
| 2026-04-24 05:39 | 35.66313 | 13.38959 | 35102 ft | 508 kts | 100° |
| 2026-04-24 05:40 | 35.64553 | 13.47378 | 35101 ft | 507 kts | 101° |
| 2026-04-24 05:40 | 35.62789 | 13.55778 | 35099 ft | 506 kts | 101° |
| 2026-04-24 05:41 | 35.61026 | 13.64146 | 35101 ft | 505 kts | 101° |
| 2026-04-24 05:41 | 35.59262 | 13.72485 | 35103 ft | 504 kts | 101° |
| 2026-04-24 05:42 | 35.57498 | 13.80798 | 35100 ft | 502 kts | 101° |
| 2026-04-24 05:42 | 35.55741 | 13.89044 | 35100 ft | 502 kts | 101° |
| 2026-04-24 05:43 | 35.53970 | 13.97330 | 35101 ft | 501 kts | 101° |
| 2026-04-24 05:43 | 35.52195 | 14.05599 | 35102 ft | 501 kts | 101° |
| 2026-04-24 05:44 | 35.50415 | 14.13869 | 35100 ft | 502 kts | 101° |
| 2026-04-24 05:44 | 35.48622 | 14.22170 | 35104 ft | 504 kts | 101° |
| 2026-04-24 05:45 | 35.46816 | 14.30499 | 35100 ft | 506 kts | 101° |
| 2026-04-24 05:45 | 35.44996 | 14.38856 | 35105 ft | 508 kts | 101° |
| 2026-04-24 05:46 | 35.43173 | 14.47199 | 35101 ft | 510 kts | 101° |
| 2026-04-24 05:46 | 35.41327 | 14.55611 | 35098 ft | 512 kts | 102° |
| 2026-04-24 05:47 | 35.39466 | 14.64065 | 35105 ft | 514 kts | 102° |
| 2026-04-24 05:47 | 35.37594 | 14.72543 | 35105 ft | 516 kts | 102° |
| 2026-04-24 05:48 | 35.35710 | 14.81039 | 35102 ft | 517 kts | 102° |
| 2026-04-24 05:48 | 35.33816 | 14.89554 | 35102 ft | 519 kts | 102° |
| 2026-04-24 05:49 | 35.31911 | 14.98087 | 35100 ft | 520 kts | 102° |
| 2026-04-24 05:49 | 35.29994 | 15.06631 | 35102 ft | 521 kts | 102° |
| 2026-04-24 05:50 | 35.28083 | 15.15128 | 35102 ft | 521 kts | 102° |
| 2026-04-24 05:50 | 35.26152 | 15.23688 | 35099 ft | 521 kts | 102° |
| 2026-04-24 05:51 | 35.24211 | 15.32257 | 35093 ft | 522 kts | 103° |
| 2026-04-24 05:51 | 35.22263 | 15.40817 | 35081 ft | 522 kts | 103° |
| 2026-04-24 05:52 | 35.20310 | 15.49373 | 35095 ft | 522 kts | 103° |
| 2026-04-24 05:52 | 35.18353 | 15.57924 | 35095 ft | 522 kts | 103° |
| 2026-04-24 05:53 | 35.16389 | 15.66471 | 35094 ft | 522 kts | 103° |
| 2026-04-24 05:53 | 35.14433 | 15.74960 | 35080 ft | 522 kts | 103° |
| 2026-04-24 05:54 | 35.12457 | 15.83501 | 35082 ft | 523 kts | 103° |
| 2026-04-24 05:54 | 35.10470 | 15.92051 | 35082 ft | 523 kts | 103° |
| 2026-04-24 05:55 | 35.08474 | 16.00609 | 35082 ft | 524 kts | 103° |
| 2026-04-24 05:55 | 35.06472 | 16.09175 | 35084 ft | 525 kts | 104° |
| 2026-04-24 05:56 | 35.04458 | 16.17757 | 35084 ft | 526 kts | 104° |
| 2026-04-24 05:56 | 35.02437 | 16.26345 | 35080 ft | 527 kts | 104° |
| 2026-04-24 05:57 | 35.00403 | 16.34951 | 35075 ft | 529 kts | 104° |
| 2026-04-24 05:57 | 34.98366 | 16.43535 | 35080 ft | 531 kts | 105° |
| 2026-04-24 05:58 | 34.96308 | 16.52177 | 35076 ft | 531 kts | 105° |
| 2026-04-24 05:58 | 34.94240 | 16.60835 | 35077 ft | 532 kts | 105° |
| 2026-04-24 05:59 | 34.92166 | 16.69491 | 35074 ft | 532 kts | 105° |
| 2026-04-24 05:59 | 34.90422 | 16.76746 | 35071 ft | 532 kts | 105° |
| 2026-04-24 06:00 | 34.88335 | 16.85400 | 35072 ft | 532 kts | 105° |
| 2026-04-24 06:00 | 34.86255 | 16.93994 | 35071 ft | 533 kts | 105° |
| 2026-04-24 06:01 | 34.84155 | 17.02646 | 35062 ft | 533 kts | 106° |
| 2026-04-24 06:01 | 34.82043 | 17.11317 | 35065 ft | 533 kts | 106° |
| 2026-04-24 06:02 | 34.79927 | 17.19969 | 35059 ft | 534 kts | 106° |
| 2026-04-24 06:02 | 34.77805 | 17.28621 | 35052 ft | 534 kts | 106° |
| 2026-04-24 06:03 | 34.75674 | 17.37277 | 35057 ft | 533 kts | 107° |
| 2026-04-24 06:03 | 34.73540 | 17.45917 | 35053 ft | 534 kts | 107° |
| 2026-04-24 06:04 | 34.71409 | 17.54520 | 35056 ft | 534 kts | 107° |
| 2026-04-24 06:04 | 34.69256 | 17.63173 | 35054 ft | 535 kts | 107° |
| 2026-04-24 06:05 | 34.67091 | 17.71849 | 35046 ft | 537 kts | 107° |
| 2026-04-24 06:05 | 34.64916 | 17.80537 | 35047 ft | 538 kts | 107° |
| 2026-04-24 06:06 | 34.62742 | 17.89188 | 35045 ft | 539 kts | 108° |
| 2026-04-24 06:06 | 34.60547 | 17.97900 | 35047 ft | 540 kts | 108° |
| 2026-04-24 06:07 | 34.58340 | 18.06634 | 35051 ft | 541 kts | 108° |
| 2026-04-24 06:07 | 34.56122 | 18.15377 | 35046 ft | 542 kts | 108° |
| 2026-04-24 06:08 | 34.53897 | 18.24115 | 35045 ft | 541 kts | 109° |
| 2026-04-24 06:08 | 34.51674 | 18.32825 | 35047 ft | 540 kts | 109° |
| 2026-04-24 06:09 | 34.49445 | 18.41522 | 35041 ft | 540 kts | 109° |
| 2026-04-24 06:09 | 34.47214 | 18.50203 | 35035 ft | 539 kts | 109° |
| 2026-04-24 06:10 | 34.44977 | 18.58864 | 35037 ft | 538 kts | 109° |
| 2026-04-24 06:11 | 34.41636 | 18.71774 | 35040 ft | 537 kts | 109° |
| 2026-04-24 06:11 | 34.39379 | 18.80457 | 35038 ft | 537 kts | 109° |
| 2026-04-24 06:12 | 34.37145 | 18.89016 | 35035 ft | 536 kts | 109° |
| 2026-04-24 06:12 | 34.34893 | 18.97626 | 35039 ft | 535 kts | 110° |
| 2026-04-24 06:13 | 34.32443 | 19.06121 | 35031 ft | 533 kts | 117° |
| 2026-04-24 06:13 | 34.29226 | 19.14169 | 35041 ft | 531 kts | 120° |
| 2026-04-24 06:14 | 34.25950 | 19.22178 | 35034 ft | 531 kts | 120° |
| 2026-04-24 06:14 | 34.22709 | 19.30196 | 35029 ft | 531 kts | 119° |
| 2026-04-24 06:15 | 34.19488 | 19.38221 | 35024 ft | 530 kts | 119° |
| 2026-04-24 06:15 | 34.16284 | 19.46201 | 35027 ft | 530 kts | 119° |
| 2026-04-24 06:16 | 34.13063 | 19.54205 | 35029 ft | 530 kts | 119° |
| 2026-04-24 06:16 | 34.09830 | 19.62203 | 35015 ft | 529 kts | 120° |
| 2026-04-24 06:17 | 34.06596 | 19.70183 | 35021 ft | 529 kts | 120° |
| 2026-04-24 06:17 | 34.03365 | 19.78144 | 35019 ft | 529 kts | 120° |
| 2026-04-24 06:18 | 34.00130 | 19.86101 | 35015 ft | 528 kts | 120° |
| 2026-04-24 06:18 | 33.96891 | 19.94036 | 35004 ft | 528 kts | 120° |
| 2026-04-24 06:19 | 33.93668 | 20.01922 | 35004 ft | 527 kts | 120° |
| 2026-04-24 06:19 | 33.90424 | 20.09838 | 34986 ft | 527 kts | 120° |
| 2026-04-24 06:20 | 33.87174 | 20.17747 | 34987 ft | 527 kts | 120° |
| 2026-04-24 06:20 | 33.83918 | 20.25656 | 34992 ft | 527 kts | 120° |
| 2026-04-24 06:21 | 33.80661 | 20.33547 | 35007 ft | 527 kts | 120° |
| 2026-04-24 06:21 | 33.77420 | 20.41387 | 35007 ft | 527 kts | 120° |
| 2026-04-24 06:22 | 33.74153 | 20.49269 | 35003 ft | 526 kts | 120° |
| 2026-04-24 06:22 | 33.70883 | 20.57139 | 35008 ft | 526 kts | 120° |
| 2026-04-24 06:23 | 33.67606 | 20.65007 | 35002 ft | 526 kts | 120° |
| 2026-04-24 06:23 | 33.64332 | 20.72852 | 35003 ft | 525 kts | 120° |
| 2026-04-24 06:24 | 33.61055 | 20.80685 | 35003 ft | 524 kts | 120° |
| 2026-04-24 06:24 | 33.57796 | 20.88459 | 34997 ft | 524 kts | 120° |
| 2026-04-24 06:25 | 33.54520 | 20.96262 | 34999 ft | 523 kts | 120° |
| 2026-04-24 06:25 | 33.51243 | 21.04044 | 34994 ft | 523 kts | 121° |
| 2026-04-24 06:26 | 33.47957 | 21.11815 | 35005 ft | 522 kts | 121° |
| 2026-04-24 06:26 | 33.44669 | 21.19577 | 35003 ft | 522 kts | 121° |
| 2026-04-24 06:27 | 33.41379 | 21.27331 | 35003 ft | 522 kts | 121° |
| 2026-04-24 06:27 | 33.38083 | 21.35084 | 35003 ft | 523 kts | 121° |
| 2026-04-24 06:28 | 33.34782 | 21.42837 | 35004 ft | 522 kts | 121° |
| 2026-04-24 06:28 | 33.31500 | 21.50521 | 35005 ft | 523 kts | 121° |
| 2026-04-24 06:29 | 33.28182 | 21.58271 | 35003 ft | 523 kts | 121° |
| 2026-04-24 06:29 | 33.24863 | 21.66010 | 35000 ft | 523 kts | 121° |
| 2026-04-24 06:30 | 33.21532 | 21.73760 | 34998 ft | 523 kts | 121° |
| 2026-04-24 06:30 | 33.18205 | 21.81484 | 35003 ft | 523 kts | 121° |
| 2026-04-24 06:31 | 33.14898 | 21.89144 | 34984 ft | 523 kts | 121° |
| 2026-04-24 06:31 | 33.11553 | 21.96873 | 35363 ft | 523 kts | 121° |
| 2026-04-24 06:31 | 33.09889 | 22.00713 | 35789 ft | 520 kts | 121° |
| 2026-04-24 06:32 | 33.08233 | 22.04533 | 36116 ft | 519 kts | 121° |
| 2026-04-24 06:32 | 33.06572 | 22.08356 | 36359 ft | 520 kts | 121° |
| 2026-04-24 06:32 | 33.04905 | 22.12189 | 36576 ft | 521 kts | 121° |
| 2026-04-24 06:32 | 33.03236 | 22.16021 | 36899 ft | 520 kts | 121° |
| 2026-04-24 06:33 | 33.01569 | 22.19847 | 36992 ft | 522 kts | 121° |
| 2026-04-24 06:33 | 32.98246 | 22.27464 | 36969 ft | 512 kts | 121° |
| 2026-04-24 06:34 | 32.94983 | 22.34934 | 36970 ft | 506 kts | 121° |
| 2026-04-24 06:34 | 32.91724 | 22.42366 | 36977 ft | 506 kts | 121° |
| 2026-04-24 06:35 | 32.88462 | 22.49787 | 36972 ft | 506 kts | 121° |
| 2026-04-24 06:35 | 32.85209 | 22.57179 | 36976 ft | 507 kts | 121° |
| 2026-04-24 06:36 | 32.81926 | 22.64619 | 36973 ft | 508 kts | 121° |
| 2026-04-24 06:36 | 32.78636 | 22.72067 | 36976 ft | 509 kts | 121° |
| 2026-04-24 06:37 | 32.75335 | 22.79518 | 36974 ft | 510 kts | 121° |
| 2026-04-24 06:37 | 32.72030 | 22.86963 | 36972 ft | 510 kts | 121° |
| 2026-04-24 06:38 | 32.68715 | 22.94420 | 36971 ft | 510 kts | 121° |
| 2026-04-24 06:38 | 32.65421 | 23.01814 | 36965 ft | 510 kts | 121° |
| 2026-04-24 06:39 | 32.62101 | 23.09248 | 36963 ft | 509 kts | 121° |
| 2026-04-24 06:39 | 32.58782 | 23.16664 | 36975 ft | 508 kts | 121° |
| 2026-04-24 06:40 | 32.55464 | 23.24061 | 36968 ft | 508 kts | 121° |
| 2026-04-24 06:40 | 32.52144 | 23.31455 | 36961 ft | 507 kts | 121° |
| 2026-04-24 06:41 | 32.48843 | 23.38787 | 36962 ft | 507 kts | 121° |
| 2026-04-24 06:41 | 32.45526 | 23.46140 | 36963 ft | 506 kts | 121° |
| 2026-04-24 06:42 | 32.42207 | 23.53482 | 36953 ft | 506 kts | 121° |
| 2026-04-24 06:42 | 32.38883 | 23.60822 | 36953 ft | 505 kts | 121° |
| 2026-04-24 06:43 | 32.35561 | 23.68135 | 36955 ft | 504 kts | 121° |
| 2026-04-24 06:43 | 32.32239 | 23.75443 | 36956 ft | 504 kts | 121° |
| 2026-04-24 06:44 | 32.28939 | 23.82690 | 36952 ft | 504 kts | 121° |
| 2026-04-24 06:44 | 32.25609 | 23.89982 | 36953 ft | 504 kts | 121° |
| 2026-04-24 06:45 | 32.22275 | 23.97267 | 36956 ft | 504 kts | 122° |
| 2026-04-24 06:45 | 32.18935 | 24.04550 | 36952 ft | 503 kts | 122° |
| 2026-04-24 06:46 | 32.15597 | 24.11815 | 36955 ft | 503 kts | 122° |
| 2026-04-24 06:46 | 32.12282 | 24.19026 | 36955 ft | 503 kts | 122° |
| 2026-04-24 06:47 | 32.08940 | 24.26278 | 36950 ft | 503 kts | 122° |
| 2026-04-24 06:47 | 32.05592 | 24.33520 | 36944 ft | 503 kts | 122° |
| 2026-04-24 06:48 | 32.02241 | 24.40755 | 36944 ft | 503 kts | 122° |
| 2026-04-24 06:48 | 31.99452 | 24.46770 | 36946 ft | 503 kts | 122° |
| 2026-04-24 06:49 | 31.96093 | 24.54003 | 36946 ft | 503 kts | 122° |
| 2026-04-24 06:49 | 31.92731 | 24.61224 | 36944 ft | 502 kts | 122° |
| 2026-04-24 06:50 | 31.89364 | 24.68439 | 36935 ft | 502 kts | 122° |
| 2026-04-24 06:50 | 31.85997 | 24.75650 | 36937 ft | 502 kts | 122° |
| 2026-04-24 06:51 | 31.82656 | 24.82786 | 36932 ft | 501 kts | 122° |
| 2026-04-24 06:51 | 31.79296 | 24.89948 | 36935 ft | 500 kts | 122° |
| 2026-04-24 06:52 | 31.75936 | 24.97100 | 36918 ft | 500 kts | 123° |
| 2026-04-24 06:52 | 31.72576 | 25.04237 | 36913 ft | 499 kts | 123° |
| 2026-04-24 06:53 | 31.69435 | 25.11518 | 36912 ft | 502 kts | 114° |
| 2026-04-24 06:53 | 31.67474 | 25.19414 | 36930 ft | 507 kts | 102° |
| 2026-04-24 06:54 | 31.66490 | 25.27613 | 36937 ft | 507 kts | 99° |
| 2026-04-24 06:54 | 31.65569 | 25.35833 | 36926 ft | 508 kts | 100° |
| 2026-04-24 06:55 | 31.64600 | 25.44051 | 36930 ft | 508 kts | 100° |
| 2026-04-24 06:55 | 31.63607 | 25.52202 | 36929 ft | 508 kts | 100° |
| 2026-04-24 06:56 | 31.62590 | 25.60470 | 36928 ft | 509 kts | 101° |
| 2026-04-24 06:56 | 31.61586 | 25.68627 | 36930 ft | 509 kts | 101° |
| 2026-04-24 06:57 | 31.60569 | 25.76842 | 36923 ft | 509 kts | 101° |
| 2026-04-24 06:57 | 31.59548 | 25.85054 | 36911 ft | 509 kts | 101° |
| 2026-04-24 06:58 | 31.58523 | 25.93261 | 36929 ft | 509 kts | 101° |
| 2026-04-24 06:58 | 31.57455 | 26.01462 | 36921 ft | 507 kts | 104° |
| 2026-04-24 06:59 | 31.55845 | 26.09500 | 36915 ft | 506 kts | 107° |
| 2026-04-24 06:59 | 31.54140 | 26.17506 | 36924 ft | 506 kts | 107° |
| 2026-04-24 07:00 | 31.52456 | 26.25506 | 36918 ft | 506 kts | 107° |
| 2026-04-24 07:00 | 31.50787 | 26.33519 | 36911 ft | 506 kts | 107° |
| 2026-04-24 07:01 | 31.49132 | 26.41474 | 36916 ft | 506 kts | 107° |
| 2026-04-24 07:01 | 31.47456 | 26.49499 | 36920 ft | 506 kts | 107° |
| 2026-04-24 07:02 | 31.45777 | 26.57505 | 36919 ft | 506 kts | 107° |
| 2026-04-24 07:02 | 31.44091 | 26.65512 | 36918 ft | 506 kts | 107° |
| 2026-04-24 07:03 | 31.42402 | 26.73508 | 36915 ft | 506 kts | 107° |
| 2026-04-24 07:03 | 31.40708 | 26.81499 | 36924 ft | 506 kts | 107° |
| 2026-04-24 07:04 | 31.39006 | 26.89499 | 36926 ft | 506 kts | 107° |
| 2026-04-24 07:04 | 31.37303 | 26.97492 | 36923 ft | 506 kts | 107° |
| 2026-04-24 07:05 | 31.35605 | 27.05435 | 36910 ft | 506 kts | 107° |
| 2026-04-24 07:05 | 31.33889 | 27.13431 | 36909 ft | 506 kts | 107° |
| 2026-04-24 07:06 | 31.31233 | 27.20851 | 36912 ft | 486 kts | 135° |
| 2026-04-24 07:06 | 31.28877 | 27.23622 | 36918 ft | 477 kts | 148° |
| 2026-04-24 07:06 | 31.26096 | 27.25647 | 36928 ft | 466 kts | 162° |
| 2026-04-24 07:07 | 31.20137 | 27.28743 | 36931 ft | 472 kts | 162° |
| 2026-04-24 07:07 | 31.11151 | 27.33522 | 36901 ft | 469 kts | 161° |
| 2026-04-24 07:08 | 31.05276 | 27.36716 | 36919 ft | 465 kts | 161° |
| 2026-04-24 07:08 | 30.99456 | 27.39870 | 36929 ft | 464 kts | 161° |
| 2026-04-24 07:09 | 30.93639 | 27.43216 | 36913 ft | 470 kts | 155° |
| 2026-04-24 07:09 | 30.88279 | 27.47707 | 36933 ft | 478 kts | 147° |
| 2026-04-24 07:10 | 30.83094 | 27.52597 | 36909 ft | 479 kts | 147° |
| 2026-04-24 07:10 | 30.77894 | 27.57477 | 36921 ft | 480 kts | 147° |
| 2026-04-24 07:11 | 30.72711 | 27.62291 | 36912 ft | 479 kts | 147° |
| 2026-04-24 07:11 | 30.67490 | 27.67113 | 36921 ft | 479 kts | 147° |
| 2026-04-24 07:12 | 30.62264 | 27.71932 | 36911 ft | 479 kts | 147° |
| 2026-04-24 07:12 | 30.57047 | 27.76740 | 36918 ft | 478 kts | 147° |
| 2026-04-24 07:13 | 30.51836 | 27.81536 | 36914 ft | 478 kts | 147° |
| 2026-04-24 07:13 | 30.46630 | 27.86318 | 36912 ft | 477 kts | 147° |
| 2026-04-24 07:14 | 30.41417 | 27.91100 | 36927 ft | 477 kts | 147° |
| 2026-04-24 07:14 | 30.36217 | 27.95867 | 36909 ft | 476 kts | 148° |
| 2026-04-24 07:15 | 30.31019 | 28.00624 | 36911 ft | 476 kts | 148° |
| 2026-04-24 07:15 | 30.25860 | 28.05339 | 36910 ft | 476 kts | 148° |
| 2026-04-24 07:16 | 30.20664 | 28.10080 | 36908 ft | 475 kts | 148° |
| 2026-04-24 07:16 | 30.15466 | 28.14817 | 36903 ft | 475 kts | 148° |
| 2026-04-24 07:17 | 30.10270 | 28.19545 | 36905 ft | 475 kts | 148° |
| 2026-04-24 07:17 | 30.05063 | 28.24279 | 36907 ft | 475 kts | 148° |
| 2026-04-24 07:18 | 29.99886 | 28.28977 | 36925 ft | 476 kts | 148° |
| 2026-04-24 07:18 | 29.94684 | 28.33694 | 36920 ft | 476 kts | 148° |
| 2026-04-24 07:19 | 29.89474 | 28.38410 | 36918 ft | 476 kts | 147° |
| 2026-04-24 07:19 | 29.84647 | 28.43731 | 36915 ft | 486 kts | 135° |
| 2026-04-24 07:20 | 29.80511 | 28.49933 | 36909 ft | 489 kts | 132° |
| 2026-04-24 07:20 | 29.76412 | 28.56174 | 36917 ft | 489 kts | 133° |
| 2026-04-24 07:21 | 29.72269 | 28.62379 | 36911 ft | 488 kts | 133° |
| 2026-04-24 07:21 | 29.68115 | 28.68566 | 36910 ft | 488 kts | 133° |
| 2026-04-24 07:22 | 29.63989 | 28.74706 | 36927 ft | 488 kts | 133° |
| 2026-04-24 07:22 | 29.59834 | 28.80882 | 36921 ft | 488 kts | 133° |
| 2026-04-24 07:23 | 29.55672 | 28.87059 | 36912 ft | 488 kts | 133° |
| 2026-04-24 07:23 | 29.51517 | 28.93224 | 36935 ft | 488 kts | 133° |
| 2026-04-24 07:24 | 29.47378 | 28.99352 | 36942 ft | 488 kts | 133° |
| 2026-04-24 07:24 | 29.43458 | 29.05714 | 36936 ft | 494 kts | 120° |
| 2026-04-24 07:25 | 29.42218 | 29.09415 | 36946 ft | 501 kts | 109° |
| 2026-04-24 07:25 | 29.41573 | 29.13359 | 36935 ft | 507 kts | 96° |
| 2026-04-24 07:25 | 29.41497 | 29.21458 | 36938 ft | 509 kts | 92° |
| 2026-04-24 07:26 | 29.41514 | 29.29596 | 36938 ft | 511 kts | 92° |
| 2026-04-24 07:26 | 29.41461 | 29.37765 | 36937 ft | 512 kts | 93° |
| 2026-04-24 07:27 | 29.41357 | 29.45948 | 36938 ft | 513 kts | 93° |
| 2026-04-24 07:27 | 29.41238 | 29.54142 | 36934 ft | 514 kts | 93° |
| 2026-04-24 07:28 | 29.41122 | 29.62342 | 36934 ft | 514 kts | 93° |
| 2026-04-24 07:28 | 29.41002 | 29.70493 | 36935 ft | 513 kts | 93° |
| 2026-04-24 07:29 | 29.40878 | 29.78676 | 36920 ft | 513 kts | 93° |
| 2026-04-24 07:29 | 29.40749 | 29.86856 | 36930 ft | 513 kts | 93° |
| 2026-04-24 07:30 | 29.40615 | 29.95028 | 36920 ft | 512 kts | 93° |
| 2026-04-24 07:30 | 29.40475 | 30.03196 | 36924 ft | 512 kts | 93° |
| 2026-04-24 07:31 | 29.40330 | 30.11372 | 36931 ft | 513 kts | 93° |
| 2026-04-24 07:31 | 29.40181 | 30.19558 | 36928 ft | 513 kts | 93° |
| 2026-04-24 07:32 | 29.40027 | 30.27753 | 36931 ft | 514 kts | 93° |
| 2026-04-24 07:32 | 29.39582 | 30.35836 | 36911 ft | 507 kts | 107° |
| 2026-04-24 07:33 | 29.38442 | 30.39622 | 36940 ft | 499 kts | 120° |
| 2026-04-24 07:33 | 29.36707 | 30.43028 | 36911 ft | 492 kts | 132° |
| 2026-04-24 07:33 | 29.32092 | 30.48647 | 36929 ft | 484 kts | 141° |
| 2026-04-24 07:34 | 29.27341 | 30.54158 | 36934 ft | 488 kts | 140° |
| 2026-04-24 07:34 | 29.23399 | 30.58806 | 36935 ft | 490 kts | 140° |
| 2026-04-24 07:35 | 29.17880 | 30.65364 | 36930 ft | 492 kts | 140° |
| 2026-04-24 07:35 | 29.13135 | 30.71003 | 36918 ft | 492 kts | 140° |
| 2026-04-24 07:36 | 29.08388 | 30.76626 | 36930 ft | 491 kts | 140° |
| 2026-04-24 07:36 | 29.04410 | 30.81330 | 36933 ft | 490 kts | 140° |
| 2026-04-24 07:37 | 28.99714 | 30.86876 | 36936 ft | 488 kts | 140° |
| 2026-04-24 07:37 | 28.94995 | 30.92442 | 36932 ft | 487 kts | 140° |
| 2026-04-24 07:38 | 28.90282 | 30.97993 | 36928 ft | 486 kts | 140° |
| 2026-04-24 07:38 | 28.85573 | 31.03531 | 36927 ft | 486 kts | 140° |
| 2026-04-24 07:39 | 28.80867 | 31.09059 | 36934 ft | 486 kts | 140° |
| 2026-04-24 07:39 | 28.76155 | 31.14587 | 36928 ft | 486 kts | 140° |
| 2026-04-24 07:40 | 28.71467 | 31.20081 | 36929 ft | 486 kts | 141° |
| 2026-04-24 07:40 | 28.66803 | 31.25679 | 36911 ft | 488 kts | 139° |
| 2026-04-24 07:41 | 28.62274 | 31.31444 | 36930 ft | 489 kts | 138° |
| 2026-04-24 07:41 | 28.57743 | 31.37224 | 36912 ft | 490 kts | 138° |
| 2026-04-24 07:42 | 28.53175 | 31.42993 | 36935 ft | 490 kts | 139° |
| 2026-04-24 07:42 | 28.48599 | 31.48742 | 36936 ft | 490 kts | 139° |
| 2026-04-24 07:43 | 28.44046 | 31.54444 | 36938 ft | 490 kts | 139° |
| 2026-04-24 07:43 | 28.39453 | 31.60193 | 36934 ft | 491 kts | 139° |
| 2026-04-24 07:44 | 28.34857 | 31.65940 | 36932 ft | 491 kts | 139° |
| 2026-04-24 07:44 | 28.30262 | 31.71680 | 36937 ft | 491 kts | 139° |
| 2026-04-24 07:45 | 28.25665 | 31.77415 | 36935 ft | 491 kts | 139° |
| 2026-04-24 07:45 | 28.21065 | 31.83145 | 36938 ft | 491 kts | 139° |
| 2026-04-24 07:46 | 28.16466 | 31.88868 | 36927 ft | 491 kts | 139° |
| 2026-04-24 07:46 | 28.11864 | 31.94581 | 36929 ft | 491 kts | 140° |
| 2026-04-24 07:47 | 28.07287 | 32.00259 | 36934 ft | 490 kts | 140° |
| 2026-04-24 07:47 | 28.02911 | 32.06225 | 36928 ft | 497 kts | 131° |
| 2026-04-24 07:48 | 27.99397 | 32.13043 | 36922 ft | 504 kts | 124° |
| 2026-04-24 07:48 | 27.96099 | 32.20042 | 36921 ft | 504 kts | 124° |
| 2026-04-24 07:49 | 27.92784 | 32.27014 | 36909 ft | 503 kts | 124° |
| 2026-04-24 07:49 | 27.89436 | 32.33965 | 36913 ft | 503 kts | 125° |
| 2026-04-24 07:50 | 27.86096 | 32.40857 | 36906 ft | 503 kts | 125° |
| 2026-04-24 07:50 | 27.82724 | 32.47804 | 36921 ft | 503 kts | 125° |
| 2026-04-24 07:51 | 27.79357 | 32.54740 | 36896 ft | 504 kts | 125° |
| 2026-04-24 07:51 | 27.75976 | 32.61686 | 36869 ft | 504 kts | 126° |
| 2026-04-24 07:52 | 27.72600 | 32.68617 | 36875 ft | 504 kts | 126° |
| 2026-04-24 07:52 | 27.69217 | 32.75551 | 36872 ft | 504 kts | 126° |
| 2026-04-24 07:53 | 27.65853 | 32.82434 | 36864 ft | 505 kts | 126° |
| 2026-04-24 07:53 | 27.62460 | 32.89363 | 36870 ft | 505 kts | 126° |
| 2026-04-24 07:54 | 27.59061 | 32.96294 | 36875 ft | 505 kts | 126° |
| 2026-04-24 07:54 | 27.55655 | 33.03229 | 36866 ft | 505 kts | 126° |
| 2026-04-24 07:55 | 27.52250 | 33.10152 | 36869 ft | 505 kts | 127° |
| 2026-04-24 07:55 | 27.48859 | 33.17032 | 36875 ft | 505 kts | 127° |
| 2026-04-24 07:56 | 27.45447 | 33.23945 | 36873 ft | 505 kts | 127° |
| 2026-04-24 07:56 | 27.42025 | 33.30867 | 36876 ft | 506 kts | 127° |
| 2026-04-24 07:57 | 27.38599 | 33.37790 | 36884 ft | 506 kts | 127° |
| 2026-04-24 07:57 | 27.35168 | 33.44709 | 36882 ft | 507 kts | 127° |
| 2026-04-24 07:58 | 27.31729 | 33.51637 | 36880 ft | 507 kts | 127° |
| 2026-04-24 07:58 | 27.28282 | 33.58573 | 36882 ft | 508 kts | 127° |
| 2026-04-24 07:59 | 27.24831 | 33.65504 | 36884 ft | 508 kts | 127° |
| 2026-04-24 07:59 | 27.21404 | 33.72382 | 36882 ft | 507 kts | 127° |
| 2026-04-24 08:00 | 27.17974 | 33.79317 | 36883 ft | 509 kts | 125° |
| 2026-04-24 08:00 | 27.15170 | 33.86693 | 36896 ft | 516 kts | 118° |
| 2026-04-24 08:01 | 27.12570 | 33.94210 | 36884 ft | 516 kts | 118° |
| 2026-04-24 08:01 | 27.09933 | 34.01698 | 36877 ft | 515 kts | 119° |
| 2026-04-24 08:02 | 27.07262 | 34.09163 | 36881 ft | 515 kts | 120° |
| 2026-04-24 08:02 | 27.04580 | 34.16639 | 36878 ft | 516 kts | 120° |
| 2026-04-24 08:03 | 27.01920 | 34.24057 | 36880 ft | 516 kts | 120° |
| 2026-04-24 08:03 | 26.99243 | 34.31522 | 36881 ft | 516 kts | 120° |
| 2026-04-24 08:04 | 26.96563 | 34.38997 | 36878 ft | 517 kts | 120° |
| 2026-04-24 08:04 | 26.93877 | 34.46477 | 36873 ft | 517 kts | 120° |
| 2026-04-24 08:05 | 26.91183 | 34.53961 | 36865 ft | 518 kts | 120° |
| 2026-04-24 08:05 | 26.88482 | 34.61447 | 36863 ft | 518 kts | 120° |
| 2026-04-24 08:06 | 26.85781 | 34.68919 | 36853 ft | 518 kts | 120° |
| 2026-04-24 08:06 | 26.83089 | 34.76354 | 36851 ft | 518 kts | 120° |
| 2026-04-24 08:07 | 26.80379 | 34.83826 | 36849 ft | 517 kts | 120° |
| 2026-04-24 08:07 | 26.77671 | 34.91280 | 36852 ft | 517 kts | 120° |
| 2026-04-24 08:08 | 26.74950 | 34.98735 | 36847 ft | 517 kts | 121° |
| 2026-04-24 08:09 | 26.70853 | 35.09903 | 36844 ft | 517 kts | 121° |
| 2026-04-24 08:09 | 26.68119 | 35.17348 | 36843 ft | 518 kts | 121° |
| 2026-04-24 08:10 | 26.65378 | 35.24801 | 36832 ft | 518 kts | 121° |
| 2026-04-24 08:10 | 26.62649 | 35.32204 | 36835 ft | 518 kts | 121° |
| 2026-04-24 08:11 | 26.59903 | 35.39642 | 36839 ft | 517 kts | 121° |
| 2026-04-24 08:11 | 26.57158 | 35.47061 | 36840 ft | 517 kts | 121° |
| 2026-04-24 08:12 | 26.54375 | 35.54459 | 36839 ft | 516 kts | 122° |
| 2026-04-24 08:12 | 26.51548 | 35.61818 | 36840 ft | 515 kts | 122° |
| 2026-04-24 08:13 | 26.48717 | 35.69176 | 36843 ft | 516 kts | 122° |
| 2026-04-24 08:13 | 26.45885 | 35.76548 | 36840 ft | 517 kts | 122° |
| 2026-04-24 08:14 | 26.43048 | 35.83928 | 36841 ft | 518 kts | 122° |
| 2026-04-24 08:14 | 26.40220 | 35.91274 | 36832 ft | 518 kts | 122° |
| 2026-04-24 08:15 | 26.37371 | 35.98665 | 36834 ft | 519 kts | 122° |
| 2026-04-24 08:15 | 26.34514 | 36.06058 | 36833 ft | 520 kts | 122° |
| 2026-04-24 08:16 | 26.31651 | 36.13455 | 36834 ft | 519 kts | 122° |
| 2026-04-24 08:16 | 26.28784 | 36.20850 | 36841 ft | 519 kts | 122° |
| 2026-04-24 08:17 | 26.25916 | 36.28228 | 36833 ft | 519 kts | 123° |
| 2026-04-24 08:17 | 26.23045 | 36.35612 | 36832 ft | 519 kts | 122° |
| 2026-04-24 08:18 | 26.20169 | 36.42988 | 36831 ft | 519 kts | 123° |
| 2026-04-24 08:18 | 26.17250 | 36.50259 | 36835 ft | 513 kts | 127° |
| 2026-04-24 08:19 | 26.13861 | 36.57191 | 36842 ft | 509 kts | 129° |
| 2026-04-24 08:19 | 26.10408 | 36.64083 | 36835 ft | 509 kts | 129° |
| 2026-04-24 08:20 | 26.06984 | 36.70977 | 36833 ft | 509 kts | 128° |
| 2026-04-24 08:20 | 26.03573 | 36.77893 | 36834 ft | 510 kts | 128° |
| 2026-04-24 08:21 | 26.00156 | 36.84809 | 36833 ft | 510 kts | 128° |
| 2026-04-24 08:21 | 25.96757 | 36.91682 | 36826 ft | 510 kts | 128° |
| 2026-04-24 08:22 | 25.93327 | 36.98606 | 36833 ft | 511 kts | 128° |
| 2026-04-24 08:22 | 25.89896 | 37.05518 | 36829 ft | 511 kts | 128° |
| 2026-04-24 08:23 | 25.86455 | 37.12438 | 36837 ft | 512 kts | 128° |
| 2026-04-24 08:23 | 25.83004 | 37.19371 | 36837 ft | 512 kts | 128° |
| 2026-04-24 08:24 | 25.79572 | 37.26255 | 36832 ft | 513 kts | 128° |
| 2026-04-24 08:24 | 25.76122 | 37.33181 | 36826 ft | 512 kts | 128° |
| 2026-04-24 08:25 | 25.72675 | 37.40104 | 36832 ft | 512 kts | 128° |
| 2026-04-24 08:25 | 25.69810 | 37.45848 | 36829 ft | 511 kts | 128° |
| 2026-04-24 08:26 | 25.66365 | 37.52738 | 36834 ft | 511 kts | 128° |
| 2026-04-24 08:26 | 25.62922 | 37.59623 | 36841 ft | 510 kts | 128° |
| 2026-04-24 08:27 | 25.59481 | 37.66490 | 36852 ft | 509 kts | 128° |
| 2026-04-24 08:27 | 25.56035 | 37.73352 | 36837 ft | 510 kts | 128° |
| 2026-04-24 08:28 | 25.52586 | 37.80210 | 36838 ft | 509 kts | 128° |
| 2026-04-24 08:28 | 25.49139 | 37.87058 | 36840 ft | 509 kts | 128° |
| 2026-04-24 08:29 | 25.45713 | 37.93850 | 36846 ft | 509 kts | 128° |
| 2026-04-24 08:29 | 25.42251 | 38.00699 | 36843 ft | 510 kts | 128° |
| 2026-04-24 08:30 | 25.38788 | 38.07551 | 36846 ft | 510 kts | 128° |
| 2026-04-24 08:30 | 25.35324 | 38.14395 | 36848 ft | 509 kts | 128° |
| 2026-04-24 08:31 | 25.31859 | 38.21225 | 36853 ft | 510 kts | 128° |
| 2026-04-24 08:31 | 25.28375 | 38.28078 | 36849 ft | 512 kts | 128° |
| 2026-04-24 08:32 | 25.24888 | 38.34938 | 36874 ft | 512 kts | 128° |
| 2026-04-24 08:32 | 25.21391 | 38.41801 | 36880 ft | 512 kts | 128° |
| 2026-04-24 08:33 | 25.17909 | 38.48629 | 36879 ft | 513 kts | 128° |
| 2026-04-24 08:33 | 25.14399 | 38.55500 | 36882 ft | 514 kts | 128° |
| 2026-04-24 08:34 | 25.10881 | 38.62378 | 36884 ft | 514 kts | 128° |
| 2026-04-24 08:34 | 25.07364 | 38.69252 | 36885 ft | 514 kts | 128° |
| 2026-04-24 08:35 | 25.03842 | 38.76122 | 36885 ft | 514 kts | 128° |
| 2026-04-24 08:35 | 25.00317 | 38.82988 | 36885 ft | 514 kts | 128° |
| 2026-04-24 08:36 | 24.96813 | 38.89806 | 36893 ft | 514 kts | 128° |
| 2026-04-24 08:36 | 24.93275 | 38.96651 | 36909 ft | 514 kts | 128° |
| 2026-04-24 08:37 | 24.89716 | 39.03495 | 36914 ft | 514 kts | 128° |
| 2026-04-24 08:37 | 24.86165 | 39.10325 | 36930 ft | 514 kts | 128° |
| 2026-04-24 08:38 | 24.82612 | 39.17154 | 36929 ft | 514 kts | 128° |
| 2026-04-24 08:38 | 24.79051 | 39.23986 | 36935 ft | 514 kts | 128° |
| 2026-04-24 08:39 | 24.75491 | 39.30812 | 36948 ft | 514 kts | 128° |
| 2026-04-24 08:39 | 24.71931 | 39.37631 | 36953 ft | 514 kts | 128° |
| 2026-04-24 08:40 | 24.68381 | 39.44421 | 36946 ft | 515 kts | 128° |
| 2026-04-24 08:40 | 24.64806 | 39.51246 | 36962 ft | 515 kts | 128° |
| 2026-04-24 08:41 | 24.61220 | 39.58088 | 36951 ft | 515 kts | 128° |
| 2026-04-24 08:41 | 24.57644 | 39.64910 | 36960 ft | 517 kts | 127° |
| 2026-04-24 08:42 | 24.54873 | 39.72332 | 36968 ft | 534 kts | 112° |
| 2026-04-24 08:42 | 24.53569 | 39.80436 | 36974 ft | 544 kts | 101° |
| 2026-04-24 08:43 | 24.52869 | 39.88730 | 36961 ft | 546 kts | 100° |
| 2026-04-24 08:43 | 24.52152 | 39.97031 | 36965 ft | 546 kts | 101° |
| 2026-04-24 08:44 | 24.51365 | 40.05321 | 36961 ft | 546 kts | 101° |
| 2026-04-24 08:44 | 24.50554 | 40.13556 | 36961 ft | 546 kts | 101° |
| 2026-04-24 08:45 | 24.49737 | 40.21837 | 36963 ft | 545 kts | 101° |
| 2026-04-24 08:45 | 24.48921 | 40.30129 | 36963 ft | 545 kts | 101° |
| 2026-04-24 08:46 | 24.48102 | 40.38412 | 36962 ft | 545 kts | 101° |
| 2026-04-24 08:46 | 24.47277 | 40.46678 | 36956 ft | 545 kts | 101° |
| 2026-04-24 08:47 | 24.46449 | 40.54948 | 36952 ft | 545 kts | 101° |
| 2026-04-24 08:47 | 24.45618 | 40.63216 | 36955 ft | 545 kts | 101° |
| 2026-04-24 08:48 | 24.44793 | 40.71420 | 36952 ft | 544 kts | 101° |
| 2026-04-24 08:48 | 24.43963 | 40.79678 | 36954 ft | 544 kts | 101° |
| 2026-04-24 08:49 | 24.43128 | 40.87928 | 36955 ft | 544 kts | 101° |
| 2026-04-24 08:49 | 24.42288 | 40.96179 | 36956 ft | 544 kts | 101° |
| 2026-04-24 08:50 | 24.41443 | 41.04431 | 36952 ft | 544 kts | 101° |
| 2026-04-24 08:50 | 24.40588 | 41.12693 | 36965 ft | 544 kts | 101° |
| 2026-04-24 08:51 | 24.39717 | 41.20935 | 36990 ft | 544 kts | 101° |
| 2026-04-24 08:51 | 24.38840 | 41.29186 | 36993 ft | 545 kts | 101° |
| 2026-04-24 08:52 | 24.37960 | 41.37444 | 36994 ft | 545 kts | 101° |
| 2026-04-24 08:52 | 24.37081 | 41.45667 | 36992 ft | 546 kts | 101° |
| 2026-04-24 08:53 | 24.36191 | 41.53943 | 36999 ft | 547 kts | 101° |
| 2026-04-24 08:53 | 24.35298 | 41.62229 | 37001 ft | 547 kts | 101° |
| 2026-04-24 08:54 | 24.34397 | 41.70525 | 36999 ft | 548 kts | 101° |
| 2026-04-24 08:54 | 24.33492 | 41.78824 | 36993 ft | 548 kts | 101° |
| 2026-04-24 08:55 | 24.32033 | 41.86971 | 36987 ft | 541 kts | 111° |
| 2026-04-24 08:55 | 24.29893 | 41.94878 | 36993 ft | 540 kts | 112° |
| 2026-04-24 08:56 | 24.27759 | 42.02728 | 36990 ft | 540 kts | 111° |
| 2026-04-24 08:56 | 24.25647 | 42.10652 | 36991 ft | 540 kts | 111° |
| 2026-04-24 08:57 | 24.23561 | 42.18556 | 36990 ft | 540 kts | 111° |
| 2026-04-24 08:57 | 24.21469 | 42.26469 | 36991 ft | 540 kts | 111° |
| 2026-04-24 08:58 | 24.19369 | 42.34366 | 36988 ft | 540 kts | 111° |
| 2026-04-24 08:58 | 24.17265 | 42.42258 | 36997 ft | 539 kts | 111° |
| 2026-04-24 08:59 | 24.15158 | 42.50148 | 36998 ft | 540 kts | 111° |
| 2026-04-24 08:59 | 24.13049 | 42.58032 | 37005 ft | 539 kts | 111° |
| 2026-04-24 09:00 | 24.10934 | 42.65924 | 37001 ft | 539 kts | 111° |
| 2026-04-24 09:00 | 24.08817 | 42.73798 | 36995 ft | 539 kts | 111° |
| 2026-04-24 09:01 | 24.06700 | 42.81664 | 36989 ft | 538 kts | 111° |
| 2026-04-24 09:01 | 24.04594 | 42.89455 | 36990 ft | 537 kts | 111° |
| 2026-04-24 09:02 | 24.02481 | 42.97283 | 36992 ft | 536 kts | 111° |
| 2026-04-24 09:02 | 24.00369 | 43.05084 | 36988 ft | 535 kts | 111° |
| 2026-04-24 09:03 | 23.98252 | 43.12889 | 36985 ft | 535 kts | 111° |
| 2026-04-24 09:03 | 23.96130 | 43.20683 | 36993 ft | 536 kts | 111° |
| 2026-04-24 09:04 | 23.94003 | 43.28503 | 36993 ft | 536 kts | 111° |
| 2026-04-24 09:04 | 23.91872 | 43.36309 | 36992 ft | 537 kts | 111° |
| 2026-04-24 09:05 | 23.89747 | 43.44075 | 36990 ft | 537 kts | 111° |
| 2026-04-24 09:05 | 23.87609 | 43.51892 | 36993 ft | 536 kts | 111° |
| 2026-04-24 09:06 | 23.85467 | 43.59689 | 36991 ft | 535 kts | 111° |
| 2026-04-24 09:06 | 23.83322 | 43.67473 | 36994 ft | 535 kts | 111° |
| 2026-04-24 09:07 | 23.81178 | 43.75241 | 36990 ft | 534 kts | 111° |
| 2026-04-24 09:07 | 23.78002 | 43.86912 | 36990 ft | 536 kts | 108° |
| 2026-04-24 09:08 | 23.76812 | 43.94971 | 36988 ft | 541 kts | 97° |
| 2026-04-24 09:08 | 23.76272 | 44.03153 | 36967 ft | 540 kts | 97° |
| 2026-04-24 09:09 | 23.75727 | 44.11308 | 36960 ft | 538 kts | 97° |
| 2026-04-24 09:09 | 23.75132 | 44.19431 | 36961 ft | 535 kts | 97° |
| 2026-04-24 09:10 | 23.74514 | 44.27513 | 36961 ft | 534 kts | 97° |
| 2026-04-24 09:10 | 23.73894 | 44.35592 | 36961 ft | 534 kts | 97° |
| 2026-04-24 09:11 | 23.73281 | 44.43611 | 36961 ft | 534 kts | 97° |
| 2026-04-24 09:11 | 23.72649 | 44.51711 | 36963 ft | 536 kts | 97° |
| 2026-04-24 09:12 | 23.72015 | 44.59829 | 36972 ft | 537 kts | 97° |
| 2026-04-24 09:12 | 23.71488 | 44.66580 | 36963 ft | 538 kts | 97° |
| 2026-04-24 09:13 | 23.70847 | 44.74726 | 36964 ft | 538 kts | 97° |
| 2026-04-24 09:13 | 23.70202 | 44.82851 | 36962 ft | 538 kts | 97° |
| 2026-04-24 09:14 | 23.69553 | 44.90990 | 36968 ft | 538 kts | 97° |
| 2026-04-24 09:14 | 23.68896 | 44.99123 | 36981 ft | 538 kts | 98° |
| 2026-04-24 09:15 | 23.68233 | 45.07255 | 36973 ft | 537 kts | 98° |
| 2026-04-24 09:15 | 23.67572 | 45.15362 | 36970 ft | 536 kts | 98° |
| 2026-04-24 09:16 | 23.66910 | 45.23407 | 36969 ft | 536 kts | 98° |
| 2026-04-24 09:16 | 23.66241 | 45.31504 | 36975 ft | 535 kts | 98° |
| 2026-04-24 09:17 | 23.65573 | 45.39583 | 36968 ft | 534 kts | 98° |
| 2026-04-24 09:17 | 23.64900 | 45.47648 | 36975 ft | 534 kts | 98° |
| 2026-04-24 09:18 | 23.64224 | 45.55709 | 36969 ft | 533 kts | 98° |
| 2026-04-24 09:18 | 23.63544 | 45.63768 | 36973 ft | 532 kts | 98° |
| 2026-04-24 09:19 | 23.62865 | 45.71760 | 36972 ft | 532 kts | 98° |
| 2026-04-24 09:19 | 23.62180 | 45.79792 | 36975 ft | 532 kts | 98° |
| 2026-04-24 09:20 | 23.61374 | 45.89190 | 36969 ft | 532 kts | 98° |
| 2026-04-24 09:20 | 23.60799 | 45.95862 | 36979 ft | 531 kts | 98° |
| 2026-04-24 09:21 | 23.60100 | 46.03892 | 36972 ft | 532 kts | 98° |
| 2026-04-24 09:21 | 23.59399 | 46.11923 | 36972 ft | 532 kts | 98° |
| 2026-04-24 09:22 | 23.58697 | 46.19900 | 36978 ft | 532 kts | 98° |
| 2026-04-24 09:22 | 23.57985 | 46.27932 | 36966 ft | 532 kts | 98° |
| 2026-04-24 09:23 | 23.57275 | 46.35952 | 36974 ft | 532 kts | 98° |
| 2026-04-24 09:23 | 23.56556 | 46.43991 | 36986 ft | 532 kts | 98° |
| 2026-04-24 09:24 | 23.55834 | 46.52016 | 36983 ft | 533 kts | 98° |
| 2026-04-24 09:24 | 23.55101 | 46.60062 | 36981 ft | 533 kts | 98° |
| 2026-04-24 09:25 | 23.54353 | 46.68096 | 36981 ft | 533 kts | 98° |
| 2026-04-24 09:25 | 23.53613 | 46.76085 | 36975 ft | 533 kts | 98° |
| 2026-04-24 09:26 | 23.52863 | 46.84133 | 36993 ft | 534 kts | 98° |
| 2026-04-24 09:26 | 23.52109 | 46.92193 | 36988 ft | 535 kts | 98° |
| 2026-04-24 09:27 | 23.51348 | 47.00270 | 36995 ft | 535 kts | 98° |
| 2026-04-24 09:27 | 23.50582 | 47.08349 | 36992 ft | 536 kts | 98° |
| 2026-04-24 09:28 | 23.49811 | 47.16432 | 36990 ft | 536 kts | 98° |
| 2026-04-24 09:28 | 23.49036 | 47.24522 | 36988 ft | 536 kts | 98° |
| 2026-04-24 09:29 | 23.48261 | 47.32555 | 36994 ft | 536 kts | 98° |
| 2026-04-24 09:29 | 23.47476 | 47.40630 | 36988 ft | 535 kts | 98° |
| 2026-04-24 09:30 | 23.46558 | 47.50074 | 36994 ft | 536 kts | 98° |
| 2026-04-24 09:30 | 23.45901 | 47.56798 | 36992 ft | 536 kts | 98° |
| 2026-04-24 09:31 | 23.45115 | 47.64877 | 36989 ft | 536 kts | 98° |
| 2026-04-24 09:31 | 23.44324 | 47.72957 | 36990 ft | 536 kts | 98° |
| 2026-04-24 09:32 | 23.43532 | 47.80982 | 36991 ft | 536 kts | 98° |
| 2026-04-24 09:32 | 23.42733 | 47.89053 | 36991 ft | 536 kts | 98° |
| 2026-04-24 09:33 | 23.41933 | 47.97119 | 36992 ft | 536 kts | 98° |
| 2026-04-24 09:33 | 23.41127 | 48.05188 | 36989 ft | 536 kts | 98° |
| 2026-04-24 09:34 | 23.40316 | 48.13260 | 36983 ft | 536 kts | 98° |
| 2026-04-24 09:34 | 23.39505 | 48.21286 | 36981 ft | 537 kts | 98° |
| 2026-04-24 09:35 | 23.38682 | 48.29363 | 36983 ft | 536 kts | 98° |
| 2026-04-24 09:35 | 23.38004 | 48.37450 | 36986 ft | 536 kts | 94° |
| 2026-04-24 09:36 | 23.37691 | 48.45559 | 36980 ft | 536 kts | 93° |
| 2026-04-24 09:36 | 23.37411 | 48.53676 | 36983 ft | 536 kts | 93° |
| 2026-04-24 09:37 | 23.37096 | 48.61779 | 36980 ft | 536 kts | 94° |
| 2026-04-24 09:37 | 23.36763 | 48.69831 | 36971 ft | 536 kts | 94° |
| 2026-04-24 09:38 | 23.36421 | 48.77941 | 36972 ft | 536 kts | 94° |
| 2026-04-24 09:38 | 23.36080 | 48.86065 | 36975 ft | 536 kts | 94° |
| 2026-04-24 09:39 | 23.35734 | 48.94169 | 36974 ft | 536 kts | 94° |
| 2026-04-24 09:39 | 23.35385 | 49.02268 | 36973 ft | 535 kts | 94° |
| 2026-04-24 09:40 | 23.34756 | 49.10319 | 36980 ft | 533 kts | 100° |
| 2026-04-24 09:40 | 23.33601 | 49.18239 | 36970 ft | 533 kts | 101° |
| 2026-04-24 09:41 | 23.32392 | 49.26197 | 36965 ft | 533 kts | 101° |
| 2026-04-24 09:41 | 23.31215 | 49.34170 | 36962 ft | 533 kts | 101° |
| 2026-04-24 09:42 | 23.30062 | 49.42139 | 36964 ft | 533 kts | 100° |
| 2026-04-24 09:42 | 23.28910 | 49.50102 | 36962 ft | 533 kts | 100° |
| 2026-04-24 09:43 | 23.27746 | 49.58078 | 36932 ft | 534 kts | 100° |
| 2026-04-24 09:43 | 23.26576 | 49.66063 | 36929 ft | 534 kts | 101° |
| 2026-04-24 09:44 | 23.25411 | 49.73979 | 36930 ft | 533 kts | 100° |
| 2026-04-24 09:44 | 23.24239 | 49.81940 | 36930 ft | 533 kts | 100° |
| 2026-04-24 09:45 | 23.23061 | 49.89898 | 36928 ft | 533 kts | 100° |
| 2026-04-24 09:45 | 23.21877 | 49.97859 | 36928 ft | 533 kts | 101° |
| 2026-04-24 09:46 | 23.20694 | 50.05805 | 36935 ft | 532 kts | 100° |
| 2026-04-24 09:46 | 23.19502 | 50.13748 | 36922 ft | 532 kts | 100° |
| 2026-04-24 09:47 | 23.18313 | 50.21684 | 36936 ft | 531 kts | 100° |
| 2026-04-24 09:47 | 23.17125 | 50.29571 | 36910 ft | 531 kts | 100° |
| 2026-04-24 09:48 | 23.15924 | 50.37485 | 36925 ft | 531 kts | 100° |
| 2026-04-24 09:48 | 23.14724 | 50.45403 | 36932 ft | 531 kts | 100° |
| 2026-04-24 09:49 | 23.13516 | 50.53338 | 36908 ft | 532 kts | 100° |
| 2026-04-24 09:49 | 23.12309 | 50.61255 | 36923 ft | 532 kts | 100° |
| 2026-04-24 09:50 | 23.11091 | 50.69184 | 36923 ft | 531 kts | 101° |
| 2026-04-24 09:50 | 23.09870 | 50.77116 | 36912 ft | 532 kts | 101° |
| 2026-04-24 09:51 | 23.08643 | 50.85056 | 36908 ft | 533 kts | 100° |
| 2026-04-24 09:51 | 23.07421 | 50.92954 | 36920 ft | 534 kts | 100° |
| 2026-04-24 09:52 | 23.06187 | 51.00893 | 36917 ft | 533 kts | 101° |
| 2026-04-24 09:52 | 23.04954 | 51.08825 | 36910 ft | 533 kts | 101° |
| 2026-04-24 09:53 | 23.03710 | 51.16751 | 36921 ft | 532 kts | 101° |
| 2026-04-24 09:53 | 23.02463 | 51.24679 | 36904 ft | 533 kts | 101° |
| 2026-04-24 09:54 | 23.01223 | 51.32583 | 36912 ft | 530 kts | 101° |
| 2026-04-24 09:54 | 22.99973 | 51.40490 | 36899 ft | 532 kts | 101° |
| 2026-04-24 09:55 | 22.98716 | 51.48409 | 36905 ft | 532 kts | 101° |
| 2026-04-24 09:55 | 22.97460 | 51.56314 | 36902 ft | 532 kts | 101° |
| 2026-04-24 09:56 | 22.96192 | 51.64232 | 36895 ft | 532 kts | 101° |
| 2026-04-24 09:56 | 22.94922 | 51.72134 | 36889 ft | 532 kts | 101° |
| 2026-04-24 09:57 | 22.93656 | 51.80040 | 36889 ft | 531 kts | 101° |
| 2026-04-24 09:57 | 22.92389 | 51.87906 | 36889 ft | 532 kts | 101° |
| 2026-04-24 09:58 | 22.91107 | 51.95809 | 36884 ft | 531 kts | 101° |
| 2026-04-24 09:58 | 22.89827 | 52.03704 | 36885 ft | 532 kts | 100° |
| 2026-04-24 09:59 | 22.88539 | 52.11624 | 36891 ft | 534 kts | 100° |
| 2026-04-24 09:59 | 22.87247 | 52.19556 | 36894 ft | 534 kts | 100° |
| 2026-04-24 10:00 | 22.85955 | 52.27449 | 36882 ft | 530 kts | 101° |
| 2026-04-24 10:00 | 22.84657 | 52.35317 | 36883 ft | 529 kts | 100° |
| 2026-04-24 10:01 | 22.83582 | 52.41844 | 36895 ft | 530 kts | 100° |
| 2026-04-24 10:01 | 22.82386 | 52.49726 | 36873 ft | 529 kts | 96° |
| 2026-04-24 10:02 | 22.82047 | 52.58976 | 36892 ft | 528 kts | 90° |
| 2026-04-24 10:02 | 22.81945 | 52.65641 | 36896 ft | 529 kts | 90° |
| 2026-04-24 10:03 | 22.81776 | 52.73618 | 36884 ft | 530 kts | 90° |
| 2026-04-24 10:03 | 22.81572 | 52.81567 | 36876 ft | 532 kts | 91° |
| 2026-04-24 10:04 | 22.81351 | 52.89601 | 36873 ft | 533 kts | 90° |
| 2026-04-24 10:04 | 22.81131 | 52.97643 | 36871 ft | 534 kts | 90° |
| 2026-04-24 10:05 | 22.80910 | 53.05689 | 36871 ft | 533 kts | 90° |
| 2026-04-24 10:05 | 22.80682 | 53.13703 | 36865 ft | 531 kts | 90° |
| 2026-04-24 10:06 | 22.80335 | 53.25703 | 36874 ft | 530 kts | 90° |
| 2026-04-24 10:07 | 22.80098 | 53.33635 | 36869 ft | 530 kts | 90° |
| 2026-04-24 10:07 | 22.79862 | 53.41476 | 36869 ft | 531 kts | 90° |
| 2026-04-24 10:08 | 22.79619 | 53.49470 | 36869 ft | 531 kts | 90° |
| 2026-04-24 10:08 | 22.79372 | 53.57477 | 36870 ft | 531 kts | 90° |
| 2026-04-24 10:09 | 22.79116 | 53.65471 | 36855 ft | 531 kts | 90° |
| 2026-04-24 10:09 | 22.78862 | 53.73469 | 36851 ft | 531 kts | 90° |
| 2026-04-24 10:10 | 22.78601 | 53.81463 | 36846 ft | 531 kts | 90° |
| 2026-04-24 10:10 | 22.78338 | 53.89449 | 36842 ft | 530 kts | 90° |
| 2026-04-24 10:11 | 22.78173 | 53.97431 | 36840 ft | 529 kts | 85° |
| 2026-04-24 10:11 | 22.79051 | 54.05291 | 36841 ft | 523 kts | 74° |
| 2026-04-24 10:12 | 22.80655 | 54.12915 | 36847 ft | 522 kts | 73° |
| 2026-04-24 10:12 | 22.82271 | 54.20572 | 36839 ft | 521 kts | 73° |
| 2026-04-24 10:13 | 22.83844 | 54.28246 | 36841 ft | 521 kts | 74° |
| 2026-04-24 10:13 | 22.85391 | 54.35932 | 36840 ft | 521 kts | 74° |
| 2026-04-24 10:14 | 22.86930 | 54.43612 | 36838 ft | 521 kts | 74° |
| 2026-04-24 10:14 | 22.88470 | 54.51298 | 36842 ft | 521 kts | 74° |
| 2026-04-24 10:15 | 22.90006 | 54.58979 | 36830 ft | 521 kts | 74° |
| 2026-04-24 10:15 | 22.91542 | 54.66643 | 36834 ft | 520 kts | 74° |
| 2026-04-24 10:16 | 22.93068 | 54.74305 | 36853 ft | 519 kts | 74° |
| 2026-04-24 10:16 | 22.94577 | 54.81918 | 36863 ft | 518 kts | 74° |
| 2026-04-24 10:17 | 22.96088 | 54.89556 | 36860 ft | 518 kts | 74° |
| 2026-04-24 10:17 | 22.97599 | 54.97200 | 36864 ft | 519 kts | 74° |
| 2026-04-24 10:18 | 22.99108 | 55.04854 | 36860 ft | 518 kts | 74° |
| 2026-04-24 10:18 | 23.00610 | 55.12502 | 36863 ft | 518 kts | 74° |
| 2026-04-24 10:19 | 23.02761 | 55.19867 | 36858 ft | 501 kts | 52° |
| 2026-04-24 10:19 | 23.04897 | 55.22722 | 36870 ft | 487 kts | 36° |
| 2026-04-24 10:19 | 23.07535 | 55.24958 | 36868 ft | 477 kts | 25° |
| 2026-04-24 10:19 | 23.10465 | 55.26583 | 36852 ft | 466 kts | 12° |
| 2026-04-24 10:20 | 23.13548 | 55.27512 | 36876 ft | 458 kts | 7° |
| 2026-04-24 10:20 | 23.19766 | 55.29204 | 36866 ft | 462 kts | 8° |
| 2026-04-24 10:21 | 23.26021 | 55.30976 | 36865 ft | 466 kts | 8° |
| 2026-04-24 10:21 | 23.32272 | 55.32805 | 36863 ft | 469 kts | 9° |
| 2026-04-24 10:22 | 23.38576 | 55.34662 | 36862 ft | 470 kts | 9° |
| 2026-04-24 10:22 | 23.44894 | 55.36525 | 36869 ft | 469 kts | 9° |
| 2026-04-24 10:23 | 23.51204 | 55.38382 | 36868 ft | 468 kts | 9° |
| 2026-04-24 10:23 | 23.57449 | 55.40231 | 36872 ft | 468 kts | 9° |
| 2026-04-24 10:24 | 23.63734 | 55.42102 | 36870 ft | 467 kts | 9° |
| 2026-04-24 10:24 | 23.66882 | 55.43039 | 36598 ft | 466 kts | 9° |
| 2026-04-24 10:24 | 23.69986 | 55.43966 | 36146 ft | 461 kts | 9° |
| 2026-04-24 10:24 | 23.73074 | 55.44886 | 35628 ft | 458 kts | 10° |
| 2026-04-24 10:25 | 23.76131 | 55.45797 | 35038 ft | 456 kts | 10° |
| 2026-04-24 10:25 | 23.79196 | 55.46709 | 34357 ft | 457 kts | 11° |
| 2026-04-24 10:25 | 23.82271 | 55.47625 | 33686 ft | 458 kts | 11° |
| 2026-04-24 10:25 | 23.85342 | 55.48541 | 33121 ft | 456 kts | 12° |
| 2026-04-24 10:26 | 23.88386 | 55.49448 | 32659 ft | 452 kts | 12° |
| 2026-04-24 10:26 | 23.91413 | 55.50348 | 32222 ft | 448 kts | 12° |
| 2026-04-24 10:26 | 23.94408 | 55.51238 | 31758 ft | 444 kts | 12° |
| 2026-04-24 10:26 | 23.97377 | 55.52146 | 31257 ft | 443 kts | 15° |
| 2026-04-24 10:27 | 24.00228 | 55.53435 | 30716 ft | 444 kts | 25° |
| 2026-04-24 10:27 | 24.02885 | 55.55164 | 30183 ft | 445 kts | 32° |
| 2026-04-24 10:27 | 24.05306 | 55.57277 | 29679 ft | 444 kts | 40° |
| 2026-04-24 10:27 | 24.07580 | 55.59544 | 29231 ft | 441 kts | 40° |
| 2026-04-24 10:28 | 24.09819 | 55.61813 | 28797 ft | 437 kts | 41° |
| 2026-04-24 10:28 | 24.12040 | 55.64062 | 28365 ft | 433 kts | 40° |
| 2026-04-24 10:28 | 24.14229 | 55.66263 | 27942 ft | 430 kts | 40° |
| 2026-04-24 10:28 | 24.16431 | 55.68463 | 27497 ft | 427 kts | 40° |
| 2026-04-24 10:29 | 24.18625 | 55.70645 | 27042 ft | 424 kts | 40° |
| 2026-04-24 10:29 | 24.20802 | 55.72805 | 26605 ft | 421 kts | 39° |
| 2026-04-24 10:29 | 24.22968 | 55.74953 | 26181 ft | 418 kts | 39° |
| 2026-04-24 10:29 | 24.25115 | 55.77084 | 25742 ft | 415 kts | 39° |
| 2026-04-24 10:30 | 24.27251 | 55.79203 | 25316 ft | 412 kts | 39° |
| 2026-04-24 10:30 | 24.29368 | 55.81307 | 24891 ft | 409 kts | 39° |
| 2026-04-24 10:30 | 24.31471 | 55.83398 | 24468 ft | 407 kts | 39° |
| 2026-04-24 10:30 | 24.33560 | 55.85477 | 24054 ft | 404 kts | 39° |
| 2026-04-24 10:31 | 24.35637 | 55.87544 | 23641 ft | 401 kts | 39° |
| 2026-04-24 10:31 | 24.37702 | 55.89601 | 23205 ft | 399 kts | 39° |
| 2026-04-24 10:31 | 24.39749 | 55.91642 | 22773 ft | 397 kts | 39° |
| 2026-04-24 10:31 | 24.41763 | 55.93653 | 22326 ft | 396 kts | 39° |
| 2026-04-24 10:32 | 24.43790 | 55.95679 | 21922 ft | 393 kts | 40° |
| 2026-04-24 10:32 | 24.45834 | 55.97722 | 21500 ft | 391 kts | 40° |
| 2026-04-24 10:32 | 24.47838 | 55.99728 | 21104 ft | 389 kts | 40° |
| 2026-04-24 10:32 | 24.49804 | 56.01695 | 20717 ft | 386 kts | 40° |
| 2026-04-24 10:33 | 24.51783 | 56.03678 | 20334 ft | 384 kts | 40° |
| 2026-04-24 10:33 | 24.53755 | 56.05653 | 19941 ft | 382 kts | 40° |
| 2026-04-24 10:33 | 24.55714 | 56.07611 | 19560 ft | 380 kts | 40° |
| 2026-04-24 10:33 | 24.57670 | 56.09564 | 19135 ft | 377 kts | 40° |
| 2026-04-24 10:34 | 24.59759 | 56.11271 | 18670 ft | 374 kts | 27° |
| 2026-04-24 10:34 | 24.62125 | 56.12436 | 18254 ft | 371 kts | 17° |
| 2026-04-24 10:34 | 24.64616 | 56.13091 | 17888 ft | 366 kts | 7° |
| 2026-04-24 10:34 | 24.67133 | 56.13514 | 17483 ft | 364 kts | 6° |
| 2026-04-24 10:35 | 24.69629 | 56.13932 | 17100 ft | 362 kts | 7° |
| 2026-04-24 10:35 | 24.72083 | 56.14361 | 16747 ft | 360 kts | 7° |
| 2026-04-24 10:35 | 24.74548 | 56.14809 | 16408 ft | 357 kts | 7° |
| 2026-04-24 10:35 | 24.76995 | 56.15248 | 15989 ft | 353 kts | 5° |
| 2026-04-24 10:36 | 24.79434 | 56.15265 | 15521 ft | 350 kts | 349° |
| 2026-04-24 10:36 | 24.81767 | 56.14596 | 15138 ft | 343 kts | 336° |
| 2026-04-24 10:36 | 24.83928 | 56.13524 | 14759 ft | 340 kts | 333° |
| 2026-04-24 10:36 | 24.86077 | 56.12426 | 14346 ft | 339 kts | 333° |
| 2026-04-24 10:37 | 24.88216 | 56.11340 | 14013 ft | 337 kts | 333° |
| 2026-04-24 10:37 | 24.90323 | 56.10282 | 13892 ft | 327 kts | 333° |
| 2026-04-24 10:37 | 24.92342 | 56.09274 | 13817 ft | 317 kts | 333° |
| 2026-04-24 10:37 | 24.94322 | 56.08287 | 13743 ft | 307 kts | 333° |
| 2026-04-24 10:38 | 24.96240 | 56.07331 | 13664 ft | 297 kts | 333° |
| 2026-04-24 10:38 | 24.97938 | 56.06157 | 13415 ft | 284 kts | 313° |
| 2026-04-24 10:38 | 24.99242 | 56.04552 | 13082 ft | 281 kts | 309° |
| 2026-04-24 10:38 | 25.00532 | 56.02932 | 12763 ft | 281 kts | 309° |
| 2026-04-24 10:39 | 25.01831 | 56.01332 | 12520 ft | 279 kts | 310° |
| 2026-04-24 10:39 | 25.03119 | 55.99760 | 12278 ft | 276 kts | 310° |
| 2026-04-24 10:39 | 25.04410 | 55.98190 | 11979 ft | 275 kts | 310° |
| 2026-04-24 10:39 | 25.05696 | 55.96629 | 11663 ft | 275 kts | 310° |
| 2026-04-24 10:40 | 25.06977 | 55.95068 | 11384 ft | 274 kts | 309° |
| 2026-04-24 10:40 | 25.08233 | 55.93529 | 11095 ft | 273 kts | 309° |
| 2026-04-24 10:40 | 25.09499 | 55.91972 | 10803 ft | 272 kts | 310° |
| 2026-04-24 10:40 | 25.10762 | 55.90420 | 10528 ft | 271 kts | 310° |
| 2026-04-24 10:41 | 25.12009 | 55.88889 | 10390 ft | 266 kts | 310° |
| 2026-04-24 10:41 | 25.13248 | 55.87367 | 10258 ft | 268 kts | 310° |
| 2026-04-24 10:41 | 25.14499 | 55.85832 | 10128 ft | 271 kts | 310° |
| 2026-04-24 10:41 | 25.15759 | 55.84266 | 9952 ft | 273 kts | 306° |
| 2026-04-24 10:42 | 25.16824 | 55.82521 | 9671 ft | 275 kts | 299° |
| 2026-04-24 10:42 | 25.17795 | 55.80705 | 9398 ft | 274 kts | 299° |
| 2026-04-24 10:42 | 25.18768 | 55.78902 | 9096 ft | 272 kts | 299° |
| 2026-04-24 10:42 | 25.19739 | 55.77115 | 8804 ft | 270 kts | 300° |
| 2026-04-24 10:43 | 25.20706 | 55.75358 | 8528 ft | 267 kts | 300° |
| 2026-04-24 10:43 | 25.21671 | 55.73617 | 8259 ft | 264 kts | 300° |
| 2026-04-24 10:43 | 25.22626 | 55.71895 | 7991 ft | 262 kts | 300° |
| 2026-04-24 10:43 | 25.23576 | 55.70191 | 7719 ft | 259 kts | 300° |
| 2026-04-24 10:44 | 25.24519 | 55.68504 | 7464 ft | 257 kts | 300° |
| 2026-04-24 10:44 | 25.25457 | 55.66828 | 7232 ft | 256 kts | 300° |
| 2026-04-24 10:44 | 25.26402 | 55.65138 | 6982 ft | 259 kts | 300° |
| 2026-04-24 10:44 | 25.27354 | 55.63429 | 6712 ft | 263 kts | 300° |
| 2026-04-24 10:45 | 25.28315 | 55.61702 | 6452 ft | 264 kts | 300° |
| 2026-04-24 10:45 | 25.29037 | 55.59906 | 6189 ft | 258 kts | 278° |
| 2026-04-24 10:45 | 25.28892 | 55.57969 | 5995 ft | 252 kts | 249° |
| 2026-04-24 10:45 | 25.28007 | 55.56340 | 5907 ft | 248 kts | 228° |
| 2026-04-24 10:46 | 25.26650 | 55.55139 | 5823 ft | 254 kts | 206° |
| 2026-04-24 10:46 | 25.24915 | 55.54793 | 5727 ft | 259 kts | 173° |
| 2026-04-24 10:46 | 25.23240 | 55.55507 | 5642 ft | 262 kts | 143° |
| 2026-04-24 10:46 | 25.22048 | 55.57011 | 5552 ft | 261 kts | 122° |
| 2026-04-24 10:47 | 25.21104 | 55.58732 | 5464 ft | 262 kts | 122° |
| 2026-04-24 10:47 | 25.20151 | 55.60458 | 5379 ft | 264 kts | 122° |
| 2026-04-24 10:47 | 25.19195 | 55.62197 | 5286 ft | 265 kts | 122° |
| 2026-04-24 10:47 | 25.18231 | 55.63943 | 5187 ft | 267 kts | 122° |
| 2026-04-24 10:48 | 25.17279 | 55.65658 | 5082 ft | 264 kts | 122° |
| 2026-04-24 10:48 | 25.16328 | 55.67370 | 4994 ft | 260 kts | 122° |
| 2026-04-24 10:48 | 25.15383 | 55.69064 | 4899 ft | 257 kts | 122° |
| 2026-04-24 10:48 | 25.14445 | 55.70747 | 4821 ft | 258 kts | 122° |
| 2026-04-24 10:49 | 25.13502 | 55.72435 | 4724 ft | 258 kts | 122° |
| 2026-04-24 10:49 | 25.12558 | 55.74128 | 4630 ft | 259 kts | 122° |
| 2026-04-24 10:49 | 25.11611 | 55.75825 | 4561 ft | 259 kts | 122° |
| 2026-04-24 10:49 | 25.10667 | 55.77518 | 4467 ft | 259 kts | 122° |
| 2026-04-24 10:50 | 25.10039 | 55.78635 | 4407 ft | 259 kts | 122° |
| 2026-04-24 10:50 | 25.09089 | 55.80331 | 4320 ft | 259 kts | 122° |
| 2026-04-24 10:50 | 25.08143 | 55.82024 | 4235 ft | 260 kts | 122° |
| 2026-04-24 10:50 | 25.07153 | 55.83686 | 4116 ft | 256 kts | 133° |
| 2026-04-24 10:51 | 25.05701 | 55.84748 | 4034 ft | 251 kts | 165° |
| 2026-04-24 10:51 | 25.03987 | 55.84848 | 3971 ft | 247 kts | 192° |
| 2026-04-24 10:51 | 25.02389 | 55.84189 | 3883 ft | 247 kts | 214° |
| 2026-04-24 10:51 | 25.01062 | 55.82221 | 3775 ft | 246 kts | 256° |
| 2026-04-24 10:52 | 25.00954 | 55.80960 | 3710 ft | 246 kts | 276° |
| 2026-04-24 10:52 | 25.01436 | 55.79160 | 3617 ft | 247 kts | 297° |
| 2026-04-24 10:52 | 25.02332 | 55.77527 | 3550 ft | 251 kts | 303° |
| 2026-04-24 10:52 | 25.03297 | 55.75954 | 3463 ft | 250 kts | 303° |
| 2026-04-24 10:53 | 25.04245 | 55.74352 | 3376 ft | 248 kts | 302° |
| 2026-04-24 10:53 | 25.05158 | 55.72746 | 3271 ft | 246 kts | 301° |
| 2026-04-24 10:53 | 25.06050 | 55.71155 | 3195 ft | 240 kts | 301° |
| 2026-04-24 10:53 | 25.06895 | 55.69635 | 3063 ft | 222 kts | 301° |
| 2026-04-24 10:54 | 25.07677 | 55.68223 | 3001 ft | 209 kts | 301° |
| 2026-04-24 10:54 | 25.08415 | 55.66896 | 2946 ft | 200 kts | 301° |
| 2026-04-24 10:54 | 25.09154 | 55.65568 | 2922 ft | 205 kts | 301° |
| 2026-04-24 10:54 | 25.09888 | 55.64244 | 2826 ft | 199 kts | 301° |
| 2026-04-24 10:55 | 25.10599 | 55.62959 | 2750 ft | 194 kts | 301° |
| 2026-04-24 10:55 | 25.11298 | 55.61697 | 2676 ft | 192 kts | 301° |
| 2026-04-24 10:55 | 25.11986 | 55.60456 | 2624 ft | 192 kts | 301° |
| 2026-04-24 10:55 | 25.12685 | 55.59192 | 2573 ft | 195 kts | 301° |
| 2026-04-24 10:56 | 25.13393 | 55.57916 | 2500 ft | 194 kts | 301° |
| 2026-04-24 10:56 | 25.14098 | 55.56645 | 2423 ft | 193 kts | 301° |
| 2026-04-24 10:56 | 25.14798 | 55.55380 | 2352 ft | 192 kts | 301° |
| 2026-04-24 10:56 | 25.15497 | 55.54120 | 2296 ft | 192 kts | 301° |
| 2026-04-24 10:57 | 25.16196 | 55.52862 | 2226 ft | 193 kts | 301° |
| 2026-04-24 10:57 | 25.16884 | 55.51614 | 2154 ft | 193 kts | 301° |
| 2026-04-24 10:57 | 25.17582 | 55.50358 | 2061 ft | 185 kts | 301° |
| 2026-04-24 10:57 | 25.18228 | 55.49190 | 1996 ft | 175 kts | 301° |
| 2026-04-24 10:58 | 25.18872 | 55.48022 | 1802 ft | 180 kts | 302° |
| 2026-04-24 10:58 | 25.19504 | 55.46883 | 1562 ft | 167 kts | 302° |
| 2026-04-24 10:58 | 25.20080 | 55.45845 | 1356 ft | 149 kts | 302° |
| 2026-04-24 10:58 | 25.20599 | 55.44904 | 1202 ft | 142 kts | 301° |
| 2026-04-24 10:59 | 25.21123 | 55.43956 | 992 ft | 145 kts | 303° |
| 2026-04-24 10:59 | 25.21647 | 55.43015 | 794 ft | 143 kts | 303° |
| 2026-04-24 10:59 | 25.22166 | 55.42074 | 591 ft | 144 kts | 303° |
| 2026-04-24 10:59 | 25.22694 | 55.41122 | 423 ft | 146 kts | 303° |
| 2026-04-24 11:00 | 25.23218 | 55.40164 | 245 ft | 145 kts | 304° |
| 2026-04-24 11:00 | 25.23742 | 55.39220 | 46 ft | 142 kts | 302° |
| 2026-04-24 11:00 | 25.24212 | 55.38374 | 36 ft | 109 kts | 301° |
| 2026-04-24 11:00 | 25.24509 | 55.37838 | 34 ft | 48 kts | 301° |
| 2026-04-24 11:01 | 25.24608 | 55.37578 | 32 ft | 27 kts | 278° |
| 2026-04-24 11:01 | 25.24617 | 55.37412 | 30 ft | 14 kts | 271° |
| 2026-04-24 11:01 | 25.24618 | 55.37358 | 29 ft | 1 kts | 272° |
| 2026-04-24 11:02 | 25.24620 | 55.37332 | 28 ft | 6 kts | 273° |
| 2026-04-24 11:03 | 25.24627 | 55.37284 | 28 ft | 7 kts | 285° |
| 2026-04-24 11:03 | 25.24645 | 55.37231 | 28 ft | 8 kts | 294° |
| 2026-04-24 11:03 | 25.24669 | 55.37176 | 28 ft | 8 kts | 298° |
| 2026-04-24 11:03 | 25.24701 | 55.37121 | 28 ft | 9 kts | 305° |
| 2026-04-24 11:04 | 25.24736 | 55.37064 | 28 ft | 9 kts | 302° |
| 2026-04-24 11:04 | 25.24767 | 55.37001 | 28 ft | 10 kts | 287° |
| 2026-04-24 11:04 | 25.24740 | 55.36933 | 27 ft | 11 kts | 218° |
| 2026-04-24 11:04 | 25.24673 | 55.36889 | 27 ft | 12 kts | 211° |
| 2026-04-24 11:05 | 25.24601 | 55.36841 | 26 ft | 12 kts | 211° |
| 2026-04-24 11:05 | 25.24532 | 55.36795 | 31 ft | 12 kts | 211° |
| 2026-04-24 11:05 | 25.24468 | 55.36752 | 30 ft | 7 kts | 212° |
| 2026-04-24 11:05 | 25.24430 | 55.36716 | 30 ft | 8 kts | 226° |
| 2026-04-24 11:06 | 25.24394 | 55.36655 | 27 ft | 13 kts | 244° |
| 2026-04-24 11:06 | 25.24373 | 55.36560 | 29 ft | 13 kts | 265° |
| 2026-04-24 11:06 | 25.24390 | 55.36464 | 29 ft | 13 kts | 292° |
| 2026-04-24 11:06 | 25.24436 | 55.36377 | 26 ft | 13 kts | 300° |
| 2026-04-24 11:07 | 25.24562 | 55.36319 | 26 ft | 6 kts | 32° |
| 2026-04-24 11:07 | 25.24602 | 55.36347 | 30 ft | 7 kts | 32° |
| 2026-04-24 11:07 | 25.24622 | 55.36360 | 26 ft | 1 kts | 31° |
| 2026-04-24 11:08 | 25.24626 | 55.36363 | 26 ft | 1 kts | 31° |
| 2026-04-24 11:08 | 25.24629 | 55.36365 | 26 ft | 1 kts | 31° |
| 2026-04-24 11:08 | 25.24630 | 55.36365 | 26 ft | 0 kts | 31° |